Observation data for Adrian on 07/11/2018      Previous  Date       Current Mesonet Observations  Soil Data  Daily Summary Page  Observations in Plain Language
KAD1 110501Z 16010KT 23/15 A3019 RMK A01 T02250146  RH  061%=      5-min Rain = 0
KAD1 110502Z 16010KT 22/15 A3019 RMK A01 T02240146  RH  061%=      5-min Rain = 0
KAD1 110503Z 16010KT 22/15 A3019 RMK A01 T02240146  RH  061%=      5-min Rain = 0
KAD1 110504Z 16010KT 22/15 A3019 RMK A01 T02240146  RH  061%=      5-min Rain = 0
KAD1 110505Z 16009KT 22/15 A3019 RMK A01 T02240145  RH  061%=      5-min Rain = 0
KAD1 110506Z 17010KT 22/15 A3019 RMK A01 T02240145  RH  061%=      5-min Rain = 0
KAD1 110507Z 17010KT 22/15 A3019 RMK A01 T02240145  RH  061%=      5-min Rain = 0
KAD1 110508Z 16010KT 22/14 A3019 RMK A01 T02230144  RH  061%=      5-min Rain = 0
KAD1 110509Z 17009KT 22/14 A3019 RMK A01 T02230144  RH  061%=      5-min Rain = 0
KAD1 110510Z 16011KT 22/14 A3019 RMK A01 T02230144  RH  061%=      5-min Rain = 0
KAD1 110511Z 16011KT 22/14 A3019 RMK A01 T02230144  RH  061%=      5-min Rain = 0
KAD1 110512Z 16011KT 22/14 A3019 RMK A01 T02240144  RH  061%=      5-min Rain = 0
KAD1 110513Z 16010KT 22/14 A3019 RMK A01 T02240144  RH  061%=      5-min Rain = 0
KAD1 110514Z 16010KT 23/14 A3019 RMK A01 T02250144  RH  060%=      5-min Rain = 0
KAD1 110515Z 16011KT 22/14 A3019 RMK A01 T02240144  RH  060%=      5-min Rain = 0
KAD1 110516Z 16011KT 22/14 A3019 RMK A01 T02240144  RH  061%=      5-min Rain = 0
KAD1 110517Z 16010KT 22/14 A3019 RMK A01 T02230144  RH  061%=      5-min Rain = 0
KAD1 110518Z 15010KT 22/14 A3019 RMK A01 T02230144  RH  061%=      5-min Rain = 0
KAD1 110519Z 16011KT 22/14 A3019 RMK A01 T02220144  RH  061%=      5-min Rain = 0
KAD1 110520Z 16011KT 22/14 A3019 RMK A01 T02210144  RH  062%=      5-min Rain = 0
KAD1 110521Z 16011KT 22/14 A3019 RMK A01 T02210144  RH  062%=      5-min Rain = 0
KAD1 110522Z 16011KT 22/14 A3019 RMK A01 T02210144  RH  062%=      5-min Rain = 0
KAD1 110523Z 16011KT 22/14 A3019 RMK A01 T02210144  RH  062%=      5-min Rain = 0
KAD1 110524Z 15011KT 22/14 A302 RMK A01 T02210144  RH  061%=      5-min Rain = 0
KAD1 110525Z 16011KT 22/14 A302 RMK A01 T02210144  RH  062%=      5-min Rain = 0
KAD1 110526Z 16011KT 22/14 A302 RMK A01 T02210144  RH  062%=      5-min Rain = 0
KAD1 110527Z 16012KT 22/14 A302 RMK A01 T02210144  RH  062%=      5-min Rain = 0
KAD1 110528Z 16012KT 22/14 A302 RMK A01 T02210144  RH  062%=      5-min Rain = 0
KAD1 110529Z 16012KT 22/14 A302 RMK A01 T02210144  RH  062%=      5-min Rain = 0
KAD1 110530Z 16012KT 22/14 A302 RMK A01 T02210143  RH  061%=      5-min Rain = 0
KAD1 110531Z 16012KT 22/14 A302 RMK A01 T02220143  RH  061%=      5-min Rain = 0
KAD1 110532Z 16012KT 22/14 A302 RMK A01 T02220143  RH  061%=      5-min Rain = 0
KAD1 110533Z 16011KT 22/14 A302 RMK A01 T02230143  RH  061%=      5-min Rain = 0
KAD1 110534Z 16012KT 22/14 A302 RMK A01 T02230143  RH  061%=      5-min Rain = 0
KAD1 110535Z 17012KT 22/14 A302 RMK A01 T02230143  RH  060%=      5-min Rain = 0
KAD1 110536Z 17012KT 22/14 A302 RMK A01 T02230142  RH  060%=      5-min Rain = 0
KAD1 110537Z 17012KT 22/14 A302 RMK A01 T02230142  RH  060%=      5-min Rain = 0
KAD1 110538Z 17011KT 22/14 A302 RMK A01 T02230142  RH  060%=      5-min Rain = 0
KAD1 110539Z 17011KT 22/14 A302 RMK A01 T02230142  RH  060%=      5-min Rain = 0
KAD1 110540Z 17011KT 22/14 A302 RMK A01 T02230142  RH  060%=      5-min Rain = 0
KAD1 110541Z 17011KT 22/14 A302 RMK A01 T02230142  RH  060%=      5-min Rain = 0
KAD1 110542Z 17011KT 22/14 A302 RMK A01 T02220142  RH  060%=      5-min Rain = 0
KAD1 110543Z 17012KT 22/14 A302 RMK A01 T02220142  RH  060%=      5-min Rain = 0
KAD1 110544Z 17011KT 22/14 A302 RMK A01 T02210142  RH  061%=      5-min Rain = 0
KAD1 110545Z 17011KT 22/14 A302 RMK A01 T02210141  RH  061%=      5-min Rain = 0
KAD1 110546Z 17011KT 22/14 A302 RMK A01 T02210142  RH  061%=      5-min Rain = 0
KAD1 110547Z 17011KT 22/14 A302 RMK A01 T02210141  RH  061%=      5-min Rain = 0
KAD1 110548Z 17011KT 22/14 A3019 RMK A01 T02210142  RH  061%=      5-min Rain = 0
KAD1 110549Z 17011KT 22/14 A3019 RMK A01 T02210141  RH  061%=      5-min Rain = 0
KAD1 110550Z 17010KT 22/14 A3019 RMK A01 T02200141  RH  061%=      5-min Rain = 0
KAD1 110551Z 17010KT 22/14 A3019 RMK A01 T02200141  RH  061%=      5-min Rain = 0
KAD1 110552Z 17011KT 22/14 A3019 RMK A01 T02200141  RH  061%=      5-min Rain = 0
KAD1 110553Z 18011KT 22/14 A3019 RMK A01 T02190141  RH  061%=      5-min Rain = 0
KAD1 110554Z 18011KT 22/14 A3019 RMK A01 T02190140  RH  061%=      5-min Rain = 0
KAD1 110555Z 18010KT 22/14 A3019 RMK A01 T02190141  RH  061%=      5-min Rain = 0
KAD1 110556Z 18011KT 22/14 A3019 RMK A01 T02180140  RH  061%=      5-min Rain = 0
KAD1 110557Z 18010KT 22/14 A3019 RMK A01 T02180140  RH  061%=      5-min Rain = 0
KAD1 110558Z 18010KT 22/14 A3019 RMK A01 T02170140  RH  061%=      5-min Rain = 0
KAD1 110559Z 18010KT 22/14 A3019 RMK A01 T02170140  RH  062%=      5-min Rain = 0
KAD1 110600Z 18010KT 22/14 A3019 RMK A01 T02170140  RH  062%=      5-min Rain = 0
KAD1 110601Z 18010KT 22/14 A3019 RMK A01 T02170140  RH  062%=      5-min Rain = 0
KAD1 110602Z 18011KT 22/14 A3019 RMK A01 T02160140  RH  062%=      5-min Rain = 0
KAD1 110603Z 18011KT 22/14 A3019 RMK A01 T02160141  RH  062%=      5-min Rain = 0
KAD1 110604Z 18012KT 22/14 A3019 RMK A01 T02160141  RH  062%=      5-min Rain = 0
KAD1 110605Z 18012KT 22/14 A3019 RMK A01 T02170142  RH  062%=      5-min Rain = 0
KAD1 110606Z 19012KT 22/14 A3019 RMK A01 T02170141  RH  062%=      5-min Rain = 0
KAD1 110607Z 18011KT 22/14 A3019 RMK A01 T02170141  RH  062%=      5-min Rain = 0
KAD1 110608Z 18011KT 22/14 A3019 RMK A01 T02170141  RH  062%=      5-min Rain = 0
KAD1 110609Z 19011KT 22/14 A3019 RMK A01 T02170141  RH  062%=      5-min Rain = 0
KAD1 110610Z 19012KT 22/14 A3019 RMK A01 T02170142  RH  062%=      5-min Rain = 0
KAD1 110611Z 19011KT 22/14 A3019 RMK A01 T02170142  RH  062%=      5-min Rain = 0
KAD1 110612Z 19012KT 22/14 A3019 RMK A01 T02170142  RH  062%=      5-min Rain = 0
KAD1 110613Z 19011KT 22/14 A3019 RMK A01 T02170142  RH  062%=      5-min Rain = 0
KAD1 110614Z 19012KT 22/14 A3019 RMK A01 T02170142  RH  062%=      5-min Rain = 0
KAD1 110615Z 19011KT 22/14 A3019 RMK A01 T02170142  RH  062%=      5-min Rain = 0
KAD1 110616Z 19012KT 22/14 A3019 RMK A01 T02170143  RH  063%=      5-min Rain = 0
KAD1 110617Z 19012KT 22/14 A3019 RMK A01 T02180143  RH  062%=      5-min Rain = 0
KAD1 110618Z 19012KT 22/14 A3019 RMK A01 T02180143  RH  062%=      5-min Rain = 0
KAD1 110619Z 19012KT 22/14 A3019 RMK A01 T02180143  RH  062%=      5-min Rain = 0
KAD1 110620Z 19012KT 22/14 A3019 RMK A01 T02180143  RH  062%=      5-min Rain = 0
KAD1 110621Z 19011KT 22/14 A3019 RMK A01 T02180143  RH  062%=      5-min Rain = 0
KAD1 110622Z 19012KT 22/14 A3019 RMK A01 T02180143  RH  062%=      5-min Rain = 0
KAD1 110623Z 19012KT 22/14 A3019 RMK A01 T02180143  RH  063%=      5-min Rain = 0
KAD1 110624Z 19012KT 22/14 A3019 RMK A01 T02170143  RH  063%=      5-min Rain = 0
KAD1 110625Z 19011KT 22/14 A3019 RMK A01 T02170143  RH  063%=      5-min Rain = 0
KAD1 110626Z 19011KT 22/14 A3019 RMK A01 T02160143  RH  063%=      5-min Rain = 0
KAD1 110627Z 19011KT 22/14 A3019 RMK A01 T02160143  RH  063%=      5-min Rain = 0
KAD1 110628Z 19011KT 22/14 A3019 RMK A01 T02160143  RH  063%=      5-min Rain = 0
KAD1 110629Z 19011KT 22/14 A3019 RMK A01 T02150143  RH  063%=      5-min Rain = 0
KAD1 110630Z 19011KT 22/14 A3019 RMK A01 T02150143  RH  064%=      5-min Rain = 0
KAD1 110631Z 19012KT 21/14 A3019 RMK A01 T02140143  RH  064%=      5-min Rain = 0
KAD1 110632Z 19012KT 21/14 A3019 RMK A01 T02140143  RH  064%=      5-min Rain = 0
KAD1 110633Z 19011KT 22/14 A3019 RMK A01 T02150143  RH  064%=      5-min Rain = 0
KAD1 110634Z 19011KT 21/14 A3019 RMK A01 T02140143  RH  064%=      5-min Rain = 0
KAD1 110635Z 19011KT 21/14 A3019 RMK A01 T02140144  RH  064%=      5-min Rain = 0
KAD1 110636Z 19012KT 21/14 A3019 RMK A01 T02140143  RH  064%=      5-min Rain = 0
KAD1 110637Z 19011KT 21/14 A3019 RMK A01 T02140144  RH  064%=      5-min Rain = 0
KAD1 110638Z 19012KT 21/14 A3019 RMK A01 T02140143  RH  064%=      5-min Rain = 0
KAD1 110639Z 19012KT 21/14 A3019 RMK A01 T02140143  RH  064%=      5-min Rain = 0
KAD1 110640Z 19012KT 21/14 A3019 RMK A01 T02140143  RH  064%=      5-min Rain = 0
KAD1 110641Z 19012KT 21/14 A3019 RMK A01 T02140144  RH  064%=      5-min Rain = 0
KAD1 110642Z 19012KT 21/14 A3019 RMK A01 T02140143  RH  064%=      5-min Rain = 0
KAD1 110643Z 19012KT 21/14 A3019 RMK A01 T02140144  RH  064%=      5-min Rain = 0
KAD1 110644Z 19011KT 21/14 A3019 RMK A01 T02140143  RH  064%=      5-min Rain = 0
KAD1 110645Z 19011KT 21/14 A3019 RMK A01 T02130143  RH  064%=      5-min Rain = 0
KAD1 110646Z 19011KT 21/14 A3019 RMK A01 T02130143  RH  064%=      5-min Rain = 0
KAD1 110647Z 19011KT 21/14 A3019 RMK A01 T02130144  RH  065%=      5-min Rain = 0
KAD1 110648Z 19011KT 21/14 A3019 RMK A01 T02120143  RH  065%=      5-min Rain = 0
KAD1 110649Z 19011KT 21/14 A3019 RMK A01 T02120143  RH  065%=      5-min Rain = 0
KAD1 110650Z 19011KT 21/14 A3019 RMK A01 T02120144  RH  065%=      5-min Rain = 0
KAD1 110651Z 19011KT 21/14 A3019 RMK A01 T02120144  RH  065%=      5-min Rain = 0
KAD1 110652Z 19011KT 21/14 A3019 RMK A01 T02120144  RH  065%=      5-min Rain = 0
KAD1 110653Z 19011KT 21/14 A3019 RMK A01 T02120143  RH  065%=      5-min Rain = 0
KAD1 110654Z 19012KT 21/14 A3019 RMK A01 T02120144  RH  065%=      5-min Rain = 0
KAD1 110655Z 18011KT 21/14 A3019 RMK A01 T02120143  RH  065%=      5-min Rain = 0
KAD1 110656Z 18012KT 21/14 A3019 RMK A01 T02120143  RH  065%=      5-min Rain = 0
KAD1 110657Z 18011KT 21/14 A3019 RMK A01 T02110143  RH  065%=      5-min Rain = 0
KAD1 110658Z 18011KT 21/14 A3019 RMK A01 T02110143  RH  065%=      5-min Rain = 0
KAD1 110659Z 19011KT 21/14 A3019 RMK A01 T02110143  RH  065%=      5-min Rain = 0
KAD1 110700Z 18011KT 21/14 A3019 RMK A01 T02100143  RH  065%=      5-min Rain = 0
KAD1 110701Z 19011KT 21/14 A3019 RMK A01 T02100143  RH  065%=      5-min Rain = 0
KAD1 110702Z 18011KT 21/14 A3019 RMK A01 T02100143  RH  066%=      5-min Rain = 0
KAD1 110703Z 19011KT 21/14 A3019 RMK A01 T02090143  RH  066%=      5-min Rain = 0
KAD1 110704Z 19011KT 21/14 A3019 RMK A01 T02090143  RH  066%=      5-min Rain = 0
KAD1 110705Z 19011KT 21/14 A3019 RMK A01 T02090143  RH  066%=      5-min Rain = 0
KAD1 110706Z 19011KT 21/14 A3019 RMK A01 T02080143  RH  066%=      5-min Rain = 0
KAD1 110707Z 19010KT 21/14 A3019 RMK A01 T02080143  RH  066%=      5-min Rain = 0
KAD1 110708Z 19011KT 21/14 A3019 RMK A01 T02070143  RH  067%=      5-min Rain = 0
KAD1 110709Z 19011KT 21/14 A3019 RMK A01 T02070143  RH  067%=      5-min Rain = 0
KAD1 110710Z 19011KT 21/14 A3019 RMK A01 T02060143  RH  067%=      5-min Rain = 0
KAD1 110711Z 19011KT 21/14 A3019 RMK A01 T02060143  RH  067%=      5-min Rain = 0
KAD1 110712Z 19010KT 21/14 A3019 RMK A01 T02060144  RH  067%=      5-min Rain = 0
KAD1 110713Z 19010KT 21/14 A3019 RMK A01 T02060144  RH  067%=      5-min Rain = 0
KAD1 110714Z 19010KT 21/14 A3019 RMK A01 T02060143  RH  067%=      5-min Rain = 0
KAD1 110715Z 19010KT 21/14 A3019 RMK A01 T02060143  RH  067%=      5-min Rain = 0
KAD1 110716Z 19011KT 21/14 A3019 RMK A01 T02060143  RH  067%=      5-min Rain = 0
KAD1 110717Z 19010KT 21/14 A3019 RMK A01 T02060143  RH  067%=      5-min Rain = 0
KAD1 110718Z 19011KT 21/14 A3019 RMK A01 T02060143  RH  067%=      5-min Rain = 0
KAD1 110719Z 19011KT 21/14 A3019 RMK A01 T02060144  RH  067%=      5-min Rain = 0
KAD1 110720Z 19011KT 21/14 A3019 RMK A01 T02060143  RH  067%=      5-min Rain = 0
KAD1 110721Z 19011KT 21/14 A3019 RMK A01 T02060143  RH  067%=      5-min Rain = 0
KAD1 110722Z 19011KT 21/14 A3019 RMK A01 T02060144  RH  067%=      5-min Rain = 0
KAD1 110723Z 19011KT 21/14 A3019 RMK A01 T02060143  RH  067%=      5-min Rain = 0
KAD1 110724Z 19011KT 21/14 A3019 RMK A01 T02060143  RH  067%=      5-min Rain = 0
KAD1 110725Z 19010KT 21/14 A3019 RMK A01 T02060144  RH  067%=      5-min Rain = 0
KAD1 110726Z 19011KT 21/14 A3019 RMK A01 T02060143  RH  067%=      5-min Rain = 0
KAD1 110727Z 19011KT 21/14 A3019 RMK A01 T02070144  RH  067%=      5-min Rain = 0
KAD1 110728Z 19011KT 21/14 A3019 RMK A01 T02070143  RH  067%=      5-min Rain = 0
KAD1 110729Z 19010KT 21/14 A3019 RMK A01 T02070144  RH  067%=      5-min Rain = 0
KAD1 110730Z 19011KT 21/14 A3019 RMK A01 T02070144  RH  067%=      5-min Rain = 0
KAD1 110731Z 19011KT 21/14 A3019 RMK A01 T02060143  RH  067%=      5-min Rain = 0
KAD1 110732Z 19011KT 21/14 A3019 RMK A01 T02060143  RH  067%=      5-min Rain = 0
KAD1 110733Z 19011KT 21/14 A3019 RMK A01 T02060143  RH  067%=      5-min Rain = 0
KAD1 110734Z 19011KT 21/14 A3019 RMK A01 T02060144  RH  068%=      5-min Rain = 0
KAD1 110735Z 19011KT 21/14 A3019 RMK A01 T02050143  RH  068%=      5-min Rain = 0
KAD1 110736Z 19011KT 21/14 A3019 RMK A01 T02050143  RH  068%=      5-min Rain = 0
KAD1 110737Z 19011KT 21/14 A3019 RMK A01 T02050143  RH  068%=      5-min Rain = 0
KAD1 110738Z 19011KT 21/14 A3019 RMK A01 T02050143  RH  068%=      5-min Rain = 0
KAD1 110739Z 19011KT 21/14 A3019 RMK A01 T02050143  RH  068%=      5-min Rain = 0
KAD1 110740Z 19010KT 20/14 A3019 RMK A01 T02040143  RH  068%=      5-min Rain = 0
KAD1 110741Z 19010KT 20/14 A3019 RMK A01 T02040143  RH  068%=      5-min Rain = 0
KAD1 110742Z 19010KT 20/14 A3019 RMK A01 T02030143  RH  068%=      5-min Rain = 0
KAD1 110743Z 19010KT 20/14 A3019 RMK A01 T02030143  RH  068%=      5-min Rain = 0
KAD1 110744Z 19010KT 20/14 A3019 RMK A01 T02030144  RH  069%=      5-min Rain = 0
KAD1 110745Z 19009KT 20/14 A3019 RMK A01 T02030143  RH  069%=      5-min Rain = 0
KAD1 110746Z 19010KT 20/14 A3019 RMK A01 T02020143  RH  069%=      5-min Rain = 0
KAD1 110747Z 19009KT 20/14 A3019 RMK A01 T02020143  RH  069%=      5-min Rain = 0
KAD1 110748Z 19009KT 20/14 A3019 RMK A01 T02020144  RH  069%=      5-min Rain = 0
KAD1 110749Z 19009KT 20/14 A3019 RMK A01 T02020144  RH  069%=      5-min Rain = 0
KAD1 110750Z 19010KT 20/14 A3019 RMK A01 T02020144  RH  069%=      5-min Rain = 0
KAD1 110751Z 19009KT 20/14 A3019 RMK A01 T02020144  RH  069%=      5-min Rain = 0
KAD1 110752Z 19009KT 20/14 A3019 RMK A01 T02020143  RH  069%=      5-min Rain = 0
KAD1 110753Z 19009KT 20/14 A3019 RMK A01 T02020144  RH  069%=      5-min Rain = 0
KAD1 110754Z 19010KT 20/14 A3019 RMK A01 T02020143  RH  069%=      5-min Rain = 0
KAD1 110755Z 19009KT 20/14 A3019 RMK A01 T02020143  RH  069%=      5-min Rain = 0
KAD1 110756Z 19010KT 20/14 A3019 RMK A01 T02020144  RH  069%=      5-min Rain = 0
KAD1 110757Z 19009KT 20/14 A3019 RMK A01 T02020144  RH  069%=      5-min Rain = 0
KAD1 110758Z 19009KT 20/14 A3019 RMK A01 T02020144  RH  069%=      5-min Rain = 0
KAD1 110759Z 19010KT 20/14 A3019 RMK A01 T02020144  RH  069%=      5-min Rain = 0
KAD1 110800Z 19010KT 20/14 A3018 RMK A01 T02010144  RH  069%=      5-min Rain = 0
KAD1 110801Z 19010KT 20/14 A3018 RMK A01 T02010144  RH  070%=      5-min Rain = 0
KAD1 110802Z 19010KT 20/14 A3018 RMK A01 T02010144  RH  070%=      5-min Rain = 0
KAD1 110803Z 19010KT 20/14 A3018 RMK A01 T02010144  RH  070%=      5-min Rain = 0
KAD1 110804Z 19010KT 20/14 A3018 RMK A01 T02010144  RH  070%=      5-min Rain = 0
KAD1 110805Z 19010KT 20/14 A3018 RMK A01 T02010144  RH  070%=      5-min Rain = 0
KAD1 110806Z 19010KT 20/14 A3018 RMK A01 T02010144  RH  070%=      5-min Rain = 0
KAD1 110807Z 19010KT 20/14 A3018 RMK A01 T02000144  RH  070%=      5-min Rain = 0
KAD1 110808Z 19010KT 20/15 A3019 RMK A01 T02000145  RH  070%=      5-min Rain = 0
KAD1 110809Z 19010KT 20/14 A3019 RMK A01 T02000144  RH  070%=      5-min Rain = 0
KAD1 110810Z 19009KT 20/15 A3019 RMK A01 T02000145  RH  070%=      5-min Rain = 0
KAD1 110811Z 19009KT 20/14 A3019 RMK A01 T02000144  RH  070%=      5-min Rain = 0
KAD1 110812Z 19009KT 20/15 A3019 RMK A01 T02000145  RH  070%=      5-min Rain = 0
KAD1 110813Z 19010KT 20/15 A3019 RMK A01 T02000145  RH  070%=      5-min Rain = 0
KAD1 110814Z 19009KT 20/14 A3019 RMK A01 T02000144  RH  070%=      5-min Rain = 0
KAD1 110815Z 19009KT 20/14 A3019 RMK A01 T01990144  RH  070%=      5-min Rain = 0
KAD1 110816Z 19009KT 20/14 A3019 RMK A01 T01990144  RH  071%=      5-min Rain = 0
KAD1 110817Z 19009KT 20/14 A3019 RMK A01 T01990144  RH  071%=      5-min Rain = 0
KAD1 110818Z 19009KT 20/14 A3019 RMK A01 T01980144  RH  071%=      5-min Rain = 0
KAD1 110819Z 19009KT 20/14 A3019 RMK A01 T01980144  RH  071%=      5-min Rain = 0
KAD1 110820Z 19009KT 20/14 A3019 RMK A01 T01980144  RH  071%=      5-min Rain = 0
KAD1 110821Z 19009KT 20/14 A3019 RMK A01 T01980144  RH  071%=      5-min Rain = 0
KAD1 110822Z 19009KT 20/14 A3019 RMK A01 T01970144  RH  071%=      5-min Rain = 0
KAD1 110823Z 19009KT 20/14 A3019 RMK A01 T01980144  RH  071%=      5-min Rain = 0
KAD1 110824Z 19009KT 20/14 A3019 RMK A01 T01970144  RH  071%=      5-min Rain = 0
KAD1 110825Z 19009KT 20/14 A3019 RMK A01 T01970144  RH  071%=      5-min Rain = 0
KAD1 110826Z 19008KT 20/14 A3019 RMK A01 T01970143  RH  071%=      5-min Rain = 0
KAD1 110827Z 19009KT 20/14 A3019 RMK A01 T01970143  RH  071%=      5-min Rain = 0
KAD1 110828Z 19009KT 20/14 A3019 RMK A01 T01960143  RH  071%=      5-min Rain = 0
KAD1 110829Z 18009KT 20/14 A3019 RMK A01 T01960143  RH  071%=      5-min Rain = 0
KAD1 110830Z 18009KT 20/14 A3019 RMK A01 T01960143  RH  071%=      5-min Rain = 0
KAD1 110831Z 19009KT 20/14 A3019 RMK A01 T01960143  RH  071%=      5-min Rain = 0
KAD1 110832Z 19009KT 20/14 A3019 RMK A01 T01960143  RH  071%=      5-min Rain = 0
KAD1 110833Z 19009KT 20/14 A3019 RMK A01 T01950143  RH  072%=      5-min Rain = 0
KAD1 110834Z 19009KT 20/14 A3019 RMK A01 T01950143  RH  072%=      5-min Rain = 0
KAD1 110835Z 19009KT 20/14 A3019 RMK A01 T01950143  RH  072%=      5-min Rain = 0
KAD1 110836Z 19009KT 19/14 A3019 RMK A01 T01940143  RH  072%=      5-min Rain = 0
KAD1 110837Z 19009KT 19/14 A3019 RMK A01 T01940143  RH  072%=      5-min Rain = 0
KAD1 110838Z 19009KT 20/14 A3019 RMK A01 T01950143  RH  072%=      5-min Rain = 0
KAD1 110839Z 19009KT 20/14 A3019 RMK A01 T01950143  RH  072%=      5-min Rain = 0
KAD1 110840Z 19009KT 20/14 A3019 RMK A01 T01950143  RH  072%=      5-min Rain = 0
KAD1 110841Z 18009KT 20/14 A3019 RMK A01 T01950143  RH  072%=      5-min Rain = 0
KAD1 110842Z 18009KT 20/14 A3019 RMK A01 T01950143  RH  072%=      5-min Rain = 0
KAD1 110843Z 18009KT 20/14 A3019 RMK A01 T01950143  RH  072%=      5-min Rain = 0
KAD1 110844Z 18009KT 19/14 A3019 RMK A01 T01940142  RH  072%=      5-min Rain = 0
KAD1 110845Z 18009KT 19/14 A3018 RMK A01 T01940142  RH  072%=      5-min Rain = 0
KAD1 110846Z 19010KT 19/14 A3018 RMK A01 T01940143  RH  072%=      5-min Rain = 0
KAD1 110847Z 19010KT 19/14 A3018 RMK A01 T01940143  RH  072%=      5-min Rain = 0
KAD1 110848Z 19010KT 19/14 A3018 RMK A01 T01940143  RH  072%=      5-min Rain = 0
KAD1 110849Z 19010KT 19/14 A3018 RMK A01 T01940143  RH  072%=      5-min Rain = 0
KAD1 110850Z 19010KT 19/14 A3018 RMK A01 T01940143  RH  072%=      5-min Rain = 0
KAD1 110851Z 19010KT 19/14 A3018 RMK A01 T01940143  RH  073%=      5-min Rain = 0
KAD1 110852Z 19010KT 19/14 A3018 RMK A01 T01930143  RH  073%=      5-min Rain = 0
KAD1 110853Z 19010KT 19/14 A3018 RMK A01 T01930143  RH  073%=      5-min Rain = 0
KAD1 110854Z 19010KT 19/14 A3018 RMK A01 T01930143  RH  073%=      5-min Rain = 0
KAD1 110855Z 19010KT 19/14 A3018 RMK A01 T01930144  RH  073%=      5-min Rain = 0
KAD1 110856Z 19010KT 19/14 A3018 RMK A01 T01930144  RH  073%=      5-min Rain = 0
KAD1 110857Z 19010KT 19/14 A3018 RMK A01 T01930144  RH  073%=      5-min Rain = 0
KAD1 110858Z 19010KT 19/14 A3018 RMK A01 T01930144  RH  073%=      5-min Rain = 0
KAD1 110859Z 19010KT 19/14 A3018 RMK A01 T01930144  RH  073%=      5-min Rain = 0
KAD1 110900Z 19011KT 19/15 A3018 RMK A01 T01930145  RH  073%=      5-min Rain = 0
KAD1 110901Z 20011KT 19/15 A3018 RMK A01 T01930145  RH  074%=      5-min Rain = 0
KAD1 110902Z 20010KT 19/15 A3018 RMK A01 T01930145  RH  074%=      5-min Rain = 0
KAD1 110903Z 20011KT 19/15 A3018 RMK A01 T01940145  RH  074%=      5-min Rain = 0
KAD1 110904Z 20010KT 19/15 A3018 RMK A01 T01940146  RH  074%=      5-min Rain = 0
KAD1 110905Z 20011KT 20/15 A3018 RMK A01 T01950146  RH  073%=      5-min Rain = 0
KAD1 110906Z 19011KT 20/15 A3018 RMK A01 T01960147  RH  073%=      5-min Rain = 0
KAD1 110907Z 19010KT 20/15 A3018 RMK A01 T01960146  RH  073%=      5-min Rain = 0
KAD1 110908Z 19010KT 20/15 A3018 RMK A01 T01960146  RH  073%=      5-min Rain = 0
KAD1 110909Z 19010KT 20/15 A3018 RMK A01 T01960146  RH  073%=      5-min Rain = 0
KAD1 110910Z 18010KT 20/15 A3018 RMK A01 T01950145  RH  073%=      5-min Rain = 0
KAD1 110911Z 18010KT 20/15 A3018 RMK A01 T01950145  RH  073%=      5-min Rain = 0
KAD1 110912Z 18010KT 19/15 A3018 RMK A01 T01940145  RH  073%=      5-min Rain = 0
KAD1 110913Z 18010KT 19/14 A3018 RMK A01 T01940144  RH  073%=      5-min Rain = 0
KAD1 110914Z 18010KT 19/14 A3018 RMK A01 T01930144  RH  073%=      5-min Rain = 0
KAD1 110915Z 18010KT 19/14 A3018 RMK A01 T01930144  RH  073%=      5-min Rain = 0
KAD1 110916Z 18010KT 19/14 A3018 RMK A01 T01920144  RH  074%=      5-min Rain = 0
KAD1 110917Z 18010KT 19/14 A3018 RMK A01 T01920144  RH  074%=      5-min Rain = 0
KAD1 110918Z 18010KT 19/14 A3018 RMK A01 T01920144  RH  074%=      5-min Rain = 0
KAD1 110919Z 18010KT 19/14 A3018 RMK A01 T01920144  RH  074%=      5-min Rain = 0
KAD1 110920Z 18010KT 19/14 A3018 RMK A01 T01920144  RH  074%=      5-min Rain = 0
KAD1 110921Z 18010KT 19/14 A3018 RMK A01 T01920144  RH  074%=      5-min Rain = 0
KAD1 110922Z 18010KT 19/14 A3018 RMK A01 T01920144  RH  074%=      5-min Rain = 0
KAD1 110923Z 18010KT 19/14 A3018 RMK A01 T01920144  RH  074%=      5-min Rain = 0
KAD1 110924Z 18010KT 19/14 A3018 RMK A01 T01920144  RH  074%=      5-min Rain = 0
KAD1 110925Z 18010KT 19/14 A3018 RMK A01 T01920144  RH  074%=      5-min Rain = 0
KAD1 110926Z 18010KT 19/14 A3018 RMK A01 T01910144  RH  074%=      5-min Rain = 0
KAD1 110927Z 18010KT 19/14 A3018 RMK A01 T01910144  RH  074%=      5-min Rain = 0
KAD1 110928Z 18010KT 19/14 A3018 RMK A01 T01900144  RH  075%=      5-min Rain = 0
KAD1 110929Z 18010KT 19/14 A3018 RMK A01 T01900144  RH  075%=      5-min Rain = 0
KAD1 110930Z 18010KT 19/15 A3018 RMK A01 T01900145  RH  075%=      5-min Rain = 0
KAD1 110931Z 18010KT 19/14 A3018 RMK A01 T01900144  RH  075%=      5-min Rain = 0
KAD1 110932Z 18010KT 19/14 A3018 RMK A01 T01890144  RH  075%=      5-min Rain = 0
KAD1 110933Z 18010KT 19/14 A3018 RMK A01 T01890144  RH  075%=      5-min Rain = 0
KAD1 110934Z 18010KT 19/14 A3018 RMK A01 T01890144  RH  075%=      5-min Rain = 0
KAD1 110935Z 18010KT 19/14 A3018 RMK A01 T01890144  RH  075%=      5-min Rain = 0
KAD1 110936Z 18010KT 19/14 A3017 RMK A01 T01890144  RH  075%=      5-min Rain = 0
KAD1 110937Z 18010KT 19/14 A3017 RMK A01 T01890144  RH  075%=      5-min Rain = 0
KAD1 110938Z 18010KT 19/14 A3017 RMK A01 T01890144  RH  075%=      5-min Rain = 0
KAD1 110939Z 18010KT 19/14 A3017 RMK A01 T01890144  RH  075%=      5-min Rain = 0
KAD1 110940Z 18011KT 19/14 A3017 RMK A01 T01890144  RH  075%=      5-min Rain = 0
KAD1 110941Z 18011KT 19/14 A3017 RMK A01 T01890144  RH  075%=      5-min Rain = 0
KAD1 110942Z 18011KT 19/14 A3017 RMK A01 T01890144  RH  075%=      5-min Rain = 0
KAD1 110943Z 18011KT 19/14 A3017 RMK A01 T01880144  RH  075%=      5-min Rain = 0
KAD1 110944Z 18011KT 19/14 A3017 RMK A01 T01880144  RH  075%=      5-min Rain = 0
KAD1 110945Z 18011KT 19/14 A3017 RMK A01 T01880144  RH  076%=      5-min Rain = 0
KAD1 110946Z 18011KT 19/14 A3017 RMK A01 T01880144  RH  076%=      5-min Rain = 0
KAD1 110947Z 18010KT 19/14 A3017 RMK A01 T01880144  RH  076%=      5-min Rain = 0
KAD1 110948Z 18011KT 19/14 A3017 RMK A01 T01880144  RH  076%=      5-min Rain = 0
KAD1 110949Z 18011KT 19/14 A3017 RMK A01 T01880144  RH  076%=      5-min Rain = 0
KAD1 110950Z 18011KT 19/14 A3017 RMK A01 T01880144  RH  076%=      5-min Rain = 0
KAD1 110951Z 18011KT 19/14 A3017 RMK A01 T01880144  RH  076%=      5-min Rain = 0
KAD1 110952Z 18011KT 19/14 A3017 RMK A01 T01880144  RH  075%=      5-min Rain = 0
KAD1 110953Z 18011KT 19/14 A3017 RMK A01 T01880144  RH  075%=      5-min Rain = 0
KAD1 110954Z 18011KT 19/14 A3017 RMK A01 T01880144  RH  075%=      5-min Rain = 0
KAD1 110955Z 18011KT 19/15 A3017 RMK A01 T01880145  RH  076%=      5-min Rain = 0
KAD1 110956Z 18011KT 19/14 A3017 RMK A01 T01880144  RH  076%=      5-min Rain = 0
KAD1 110957Z 18011KT 19/15 A3017 RMK A01 T01880145  RH  076%=      5-min Rain = 0
KAD1 110958Z 18011KT 19/15 A3017 RMK A01 T01880145  RH  076%=      5-min Rain = 0
KAD1 110959Z 19011KT 19/15 A3017 RMK A01 T01880145  RH  076%=      5-min Rain = 0
KAD1 111000Z 18011KT 19/15 A3017 RMK A01 T01890146  RH  076%=      5-min Rain = 0
KAD1 111001Z 19011KT 19/15 A3017 RMK A01 T01890146  RH  076%=      5-min Rain = 0
KAD1 111002Z 19011KT 19/15 A3017 RMK A01 T01890147  RH  076%=      5-min Rain = 0
KAD1 111003Z 19011KT 19/15 A3017 RMK A01 T01890147  RH  076%=      5-min Rain = 0
KAD1 111004Z 19011KT 19/15 A3017 RMK A01 T01890147  RH  076%=      5-min Rain = 0
KAD1 111005Z 19011KT 19/15 A3017 RMK A01 T01880146  RH  077%=      5-min Rain = 0
KAD1 111006Z 19011KT 19/15 A3017 RMK A01 T01870146  RH  077%=      5-min Rain = 0
KAD1 111007Z 19011KT 19/15 A3017 RMK A01 T01870146  RH  077%=      5-min Rain = 0
KAD1 111008Z 19011KT 19/15 A3017 RMK A01 T01870146  RH  077%=      5-min Rain = 0
KAD1 111009Z 19011KT 19/15 A3017 RMK A01 T01870146  RH  077%=      5-min Rain = 0
KAD1 111010Z 19011KT 19/15 A3017 RMK A01 T01860146  RH  077%=      5-min Rain = 0
KAD1 111011Z 18011KT 19/15 A3017 RMK A01 T01860146  RH  077%=      5-min Rain = 0
KAD1 111012Z 19010KT 19/15 A3017 RMK A01 T01860146  RH  077%=      5-min Rain = 0
KAD1 111013Z 19011KT 19/15 A3017 RMK A01 T01860146  RH  078%=      5-min Rain = 0
KAD1 111014Z 19010KT 19/15 A3017 RMK A01 T01860146  RH  078%=      5-min Rain = 0
KAD1 111015Z 19010KT 19/15 A3017 RMK A01 T01860147  RH  078%=      5-min Rain = 0
KAD1 111016Z 19010KT 19/15 A3017 RMK A01 T01850147  RH  078%=      5-min Rain = 0
KAD1 111017Z 19010KT 19/15 A3017 RMK A01 T01850147  RH  078%=      5-min Rain = 0
KAD1 111018Z 19010KT 19/15 A3017 RMK A01 T01850147  RH  079%=      5-min Rain = 0
KAD1 111019Z 19009KT 18/15 A3017 RMK A01 T01840147  RH  079%=      5-min Rain = 0
KAD1 111020Z 20009KT 18/15 A3017 RMK A01 T01840147  RH  079%=      5-min Rain = 0
KAD1 111021Z 20009KT 18/15 A3017 RMK A01 T01840147  RH  079%=      5-min Rain = 0
KAD1 111022Z 20008KT 18/15 A3017 RMK A01 T01840148  RH  079%=      5-min Rain = 0
KAD1 111023Z 20008KT 18/15 A3017 RMK A01 T01840148  RH  079%=      5-min Rain = 0
KAD1 111024Z 20008KT 18/15 A3017 RMK A01 T01830148  RH  080%=      5-min Rain = 0
KAD1 111025Z 20007KT 18/15 A3017 RMK A01 T01830148  RH  080%=      5-min Rain = 0
KAD1 111026Z 20007KT 18/15 A3018 RMK A01 T01820147  RH  080%=      5-min Rain = 0
KAD1 111027Z 20007KT 18/15 A3018 RMK A01 T01820148  RH  080%=      5-min Rain = 0
KAD1 111028Z 21007KT 18/15 A3018 RMK A01 T01810147  RH  080%=      5-min Rain = 0
KAD1 111029Z 21006KT 18/15 A3018 RMK A01 T01810147  RH  081%=      5-min Rain = 0
KAD1 111030Z 21007KT 18/15 A3018 RMK A01 T01800147  RH  081%=      5-min Rain = 0
KAD1 111031Z 22006KT 18/15 A3018 RMK A01 T01800147  RH  081%=      5-min Rain = 0
KAD1 111032Z 22006KT 18/15 A3018 RMK A01 T01790147  RH  082%=      5-min Rain = 0
KAD1 111033Z 21007KT 18/15 A3018 RMK A01 T01790148  RH  082%=      5-min Rain = 0
KAD1 111034Z 21006KT 18/15 A3018 RMK A01 T01790147  RH  082%=      5-min Rain = 0
KAD1 111035Z 21007KT 18/15 A3018 RMK A01 T01780147  RH  082%=      5-min Rain = 0
KAD1 111036Z 21007KT 18/15 A3018 RMK A01 T01790148  RH  082%=      5-min Rain = 0
KAD1 111037Z 20007KT 18/15 A3018 RMK A01 T01790148  RH  082%=      5-min Rain = 0
KAD1 111038Z 20008KT 18/15 A3018 RMK A01 T01790148  RH  082%=      5-min Rain = 0
KAD1 111039Z 20008KT 18/15 A3018 RMK A01 T01800148  RH  082%=      5-min Rain = 0
KAD1 111040Z 20009KT 18/15 A3018 RMK A01 T01800148  RH  081%=      5-min Rain = 0
KAD1 111041Z 20008KT 18/15 A3018 RMK A01 T01810148  RH  081%=      5-min Rain = 0
KAD1 111042Z 20008KT 18/15 A3018 RMK A01 T01820149  RH  081%=      5-min Rain = 0
KAD1 111043Z 20008KT 18/15 A3018 RMK A01 T01820149  RH  081%=      5-min Rain = 0
KAD1 111044Z 20008KT 18/15 A3018 RMK A01 T01820149  RH  081%=      5-min Rain = 0
KAD1 111045Z 20008KT 18/15 A3018 RMK A01 T01820149  RH  081%=      5-min Rain = 0
KAD1 111046Z 20008KT 18/15 A3018 RMK A01 T01820149  RH  081%=      5-min Rain = 0
KAD1 111047Z 20008KT 18/15 A3018 RMK A01 T01820149  RH  081%=      5-min Rain = 0
KAD1 111048Z 20008KT 18/15 A3018 RMK A01 T01820149  RH  081%=      5-min Rain = 0
KAD1 111049Z 20008KT 18/15 A3018 RMK A01 T01820149  RH  081%=      5-min Rain = 0
KAD1 111050Z 19008KT 18/15 A3018 RMK A01 T01820149  RH  081%=      5-min Rain = 0
KAD1 111051Z 19008KT 18/15 A3018 RMK A01 T01820148  RH  081%=      5-min Rain = 0
KAD1 111052Z 19008KT 18/15 A3018 RMK A01 T01810147  RH  081%=      5-min Rain = 0
KAD1 111053Z 18007KT 18/15 A3018 RMK A01 T01810147  RH  081%=      5-min Rain = 0
KAD1 111054Z 18007KT 18/15 A3018 RMK A01 T01800147  RH  081%=      5-min Rain = 0
KAD1 111055Z 18007KT 18/15 A3018 RMK A01 T01800147  RH  081%=      5-min Rain = 0
KAD1 111056Z 19007KT 18/15 A3019 RMK A01 T01800147  RH  081%=      5-min Rain = 0
KAD1 111057Z 19007KT 18/15 A3019 RMK A01 T01790147  RH  081%=      5-min Rain = 0
KAD1 111058Z 19007KT 18/15 A3019 RMK A01 T01790146  RH  081%=      5-min Rain = 0
KAD1 111059Z 20006KT 18/15 A3019 RMK A01 T01780147  RH  082%=      5-min Rain = 0
KAD1 111100Z 20006KT 18/15 A3019 RMK A01 T01770146  RH  082%=      5-min Rain = 0
KAD1 111101Z 20006KT 18/15 A3019 RMK A01 T01760146  RH  083%=      5-min Rain = 0
KAD1 111102Z 21006KT 18/15 A3019 RMK A01 T01750146  RH  083%=      5-min Rain = 0
KAD1 111103Z 21005KT 18/15 A3019 RMK A01 T01750146  RH  083%=      5-min Rain = 0
KAD1 111104Z 21004KT 17/15 A3019 RMK A01 T01740146  RH  084%=      5-min Rain = 0
KAD1 111105Z 22004KT 17/15 A3019 RMK A01 T01730146  RH  084%=      5-min Rain = 0
KAD1 111106Z 23004KT 17/15 A3019 RMK A01 T01720145  RH  084%=      5-min Rain = 0
KAD1 111107Z 23004KT 17/15 A3019 RMK A01 T01710145  RH  085%=      5-min Rain = 0
KAD1 111108Z 22005KT 17/15 A3019 RMK A01 T01710146  RH  085%=      5-min Rain = 0
KAD1 111109Z 21005KT 17/15 A3019 RMK A01 T01710146  RH  085%=      5-min Rain = 0
KAD1 111110Z 21005KT 17/15 A3019 RMK A01 T01710146  RH  085%=      5-min Rain = 0
KAD1 111111Z 20004KT 17/15 A3019 RMK A01 T01720146  RH  085%=      5-min Rain = 0
KAD1 111112Z 20005KT 17/15 A3019 RMK A01 T01720145  RH  084%=      5-min Rain = 0
KAD1 111113Z 20005KT 17/15 A3019 RMK A01 T01720145  RH  084%=      5-min Rain = 0
KAD1 111114Z 20005KT 17/15 A3019 RMK A01 T01730145  RH  084%=      5-min Rain = 0
KAD1 111115Z 19006KT 17/15 A3019 RMK A01 T01730145  RH  084%=      5-min Rain = 0
KAD1 111116Z 19006KT 17/15 A3019 RMK A01 T01730145  RH  083%=      5-min Rain = 0
KAD1 111117Z 19006KT 17/15 A3019 RMK A01 T01730145  RH  083%=      5-min Rain = 0
KAD1 111118Z 19006KT 17/15 A3018 RMK A01 T01730145  RH  084%=      5-min Rain = 0
KAD1 111119Z 19007KT 17/15 A3018 RMK A01 T01720145  RH  084%=      5-min Rain = 0
KAD1 111120Z 19008KT 17/15 A3018 RMK A01 T01720145  RH  084%=      5-min Rain = 0
KAD1 111121Z 19008KT 17/15 A3018 RMK A01 T01720145  RH  084%=      5-min Rain = 0
KAD1 111122Z 18008KT 17/14 A3018 RMK A01 T01710144  RH  084%=      5-min Rain = 0
KAD1 111123Z 18008KT 17/14 A3018 RMK A01 T01710144  RH  084%=      5-min Rain = 0
KAD1 111124Z 18008KT 17/14 A3018 RMK A01 T01710144  RH  084%=      5-min Rain = 0
KAD1 111125Z 18008KT 17/14 A3018 RMK A01 T01720144  RH  084%=      5-min Rain = 0
KAD1 111126Z 18008KT 17/15 A3018 RMK A01 T01720145  RH  084%=      5-min Rain = 0
KAD1 111127Z 18007KT 17/15 A3018 RMK A01 T01730145  RH  083%=      5-min Rain = 0
KAD1 111128Z 18007KT 17/15 A3018 RMK A01 T01730145  RH  083%=      5-min Rain = 0
KAD1 111129Z 18007KT 17/14 A3018 RMK A01 T01730144  RH  083%=      5-min Rain = 0
KAD1 111130Z 18006KT 17/14 A3018 RMK A01 T01730144  RH  083%=      5-min Rain = 0
KAD1 111131Z 18006KT 17/14 A3018 RMK A01 T01730144  RH  083%=      5-min Rain = 0
KAD1 111132Z 19007KT 17/14 A3019 RMK A01 T01730144  RH  083%=      5-min Rain = 0
KAD1 111133Z 19006KT 17/14 A3019 RMK A01 T01730144  RH  083%=      5-min Rain = 0
KAD1 111134Z 19006KT 17/15 A3019 RMK A01 T01740145  RH  083%=      5-min Rain = 0
KAD1 111135Z 19006KT 17/15 A3019 RMK A01 T01740145  RH  083%=      5-min Rain = 0
KAD1 111136Z 19007KT 17/15 A3019 RMK A01 T01740146  RH  084%=      5-min Rain = 0
KAD1 111137Z 19007KT 17/15 A3019 RMK A01 T01740146  RH  084%=      5-min Rain = 0
KAD1 111138Z 19007KT 17/15 A3019 RMK A01 T01730146  RH  084%=      5-min Rain = 0
KAD1 111139Z 19007KT 17/15 A3019 RMK A01 T01720146  RH  084%=      5-min Rain = 0
KAD1 111140Z 19008KT 17/15 A3019 RMK A01 T01720146  RH  085%=      5-min Rain = 0
KAD1 111141Z 19008KT 17/15 A3019 RMK A01 T01720146  RH  085%=      5-min Rain = 0
KAD1 111142Z 20008KT 17/15 A3019 RMK A01 T01710146  RH  085%=      5-min Rain = 0
KAD1 111143Z 20008KT 17/15 A3019 RMK A01 T01710146  RH  085%=      5-min Rain = 0
KAD1 111144Z 19009KT 17/15 A3019 RMK A01 T01710146  RH  085%=      5-min Rain = 0
KAD1 111145Z 20009KT 17/15 A3019 RMK A01 T01710146  RH  085%=      5-min Rain = 0
KAD1 111146Z 20009KT 17/15 A3019 RMK A01 T01710146  RH  085%=      5-min Rain = 0
KAD1 111147Z 20009KT 17/15 A3019 RMK A01 T01710146  RH  085%=      5-min Rain = 0
KAD1 111148Z 20009KT 17/15 A3019 RMK A01 T01710146  RH  085%=      5-min Rain = 0
KAD1 111149Z 20009KT 17/15 A3019 RMK A01 T01720147  RH  085%=      5-min Rain = 0
KAD1 111150Z 20009KT 17/15 A3019 RMK A01 T01720146  RH  085%=      5-min Rain = 0
KAD1 111151Z 20009KT 17/15 A3019 RMK A01 T01720146  RH  085%=      5-min Rain = 0
KAD1 111152Z 20009KT 17/15 A3019 RMK A01 T01720146  RH  084%=      5-min Rain = 0
KAD1 111153Z 20009KT 17/15 A3019 RMK A01 T01720146  RH  084%=      5-min Rain = 0
KAD1 111154Z 20009KT 17/15 A3019 RMK A01 T01720146  RH  084%=      5-min Rain = 0
KAD1 111155Z 20009KT 17/15 A3019 RMK A01 T01720146  RH  085%=      5-min Rain = 0
KAD1 111156Z 20009KT 17/15 A3019 RMK A01 T01720146  RH  084%=      5-min Rain = 0
KAD1 111157Z 20009KT 17/15 A3019 RMK A01 T01730146  RH  085%=      5-min Rain = 0
KAD1 111158Z 20009KT 17/15 A3019 RMK A01 T01730147  RH  084%=      5-min Rain = 0
KAD1 111159Z 20009KT 17/15 A3019 RMK A01 T01730147  RH  084%=      5-min Rain = 0
KAD1 111200Z 20009KT 17/15 A3019 RMK A01 T01740147  RH  084%=      5-min Rain = 0
KAD1 111201Z 20009KT 17/15 A3019 RMK A01 T01740148  RH  084%=      5-min Rain = 0
KAD1 111202Z 20009KT 18/15 A3019 RMK A01 T01750148  RH  084%=      5-min Rain = 0
KAD1 111203Z 20009KT 18/15 A3019 RMK A01 T01770149  RH  084%=      5-min Rain = 0
KAD1 111204Z 20010KT 18/15 A3019 RMK A01 T01780149  RH  083%=      5-min Rain = 0
KAD1 111205Z 20009KT 18/15 A3019 RMK A01 T01790149  RH  083%=      5-min Rain = 0
KAD1 111206Z 20010KT 18/15 A3019 RMK A01 T01800150  RH  082%=      5-min Rain = 0
KAD1 111207Z 20009KT 18/15 A3019 RMK A01 T01800150  RH  082%=      5-min Rain = 0
KAD1 111208Z 20009KT 18/15 A3019 RMK A01 T01810150  RH  082%=      5-min Rain = 0
KAD1 111209Z 20009KT 18/15 A3019 RMK A01 T01810150  RH  082%=      5-min Rain = 0
KAD1 111210Z 20009KT 18/15 A3019 RMK A01 T01820150  RH  082%=      5-min Rain = 0
KAD1 111211Z 20009KT 18/15 A3019 RMK A01 T01820150  RH  082%=      5-min Rain = 0
KAD1 111212Z 20009KT 18/15 A3019 RMK A01 T01820150  RH  082%=      5-min Rain = 0
KAD1 111213Z 20009KT 18/15 A3019 RMK A01 T01830151  RH  081%=      5-min Rain = 0
KAD1 111214Z 20009KT 18/15 A3019 RMK A01 T01830150  RH  081%=      5-min Rain = 0
KAD1 111215Z 21010KT 18/15 A3019 RMK A01 T01830150  RH  081%=      5-min Rain = 0
KAD1 111216Z 20009KT 18/15 A3019 RMK A01 T01830151  RH  081%=      5-min Rain = 0
KAD1 111217Z 20009KT 18/15 A3019 RMK A01 T01840151  RH  081%=      5-min Rain = 0
KAD1 111218Z 20009KT 18/15 A3019 RMK A01 T01840151  RH  081%=      5-min Rain = 0
KAD1 111219Z 20009KT 19/15 A3019 RMK A01 T01850151  RH  081%=      5-min Rain = 0
KAD1 111220Z 20009KT 19/15 A3019 RMK A01 T01850151  RH  081%=      5-min Rain = 0
KAD1 111221Z 20009KT 19/15 A3019 RMK A01 T01850151  RH  080%=      5-min Rain = 0
KAD1 111222Z 20009KT 19/15 A3019 RMK A01 T01850151  RH  080%=      5-min Rain = 0
KAD1 111223Z 20009KT 19/15 A3019 RMK A01 T01850151  RH  080%=      5-min Rain = 0
KAD1 111224Z 20009KT 19/15 A3019 RMK A01 T01860151  RH  080%=      5-min Rain = 0
KAD1 111225Z 20009KT 19/15 A3019 RMK A01 T01860151  RH  080%=      5-min Rain = 0
KAD1 111226Z 21009KT 19/15 A3019 RMK A01 T01870152  RH  080%=      5-min Rain = 0
KAD1 111227Z 21009KT 19/15 A3019 RMK A01 T01870151  RH  080%=      5-min Rain = 0
KAD1 111228Z 21010KT 19/15 A3019 RMK A01 T01880152  RH  079%=      5-min Rain = 0
KAD1 111229Z 21010KT 19/15 A3019 RMK A01 T01880152  RH  079%=      5-min Rain = 0
KAD1 111230Z 21010KT 19/15 A3019 RMK A01 T01890152  RH  079%=      5-min Rain = 0
KAD1 111231Z 21010KT 19/15 A3019 RMK A01 T01900152  RH  079%=      5-min Rain = 0
KAD1 111232Z 20010KT 19/15 A3019 RMK A01 T01910153  RH  078%=      5-min Rain = 0
KAD1 111233Z 21010KT 19/15 A3019 RMK A01 T01920153  RH  078%=      5-min Rain = 0
KAD1 111234Z 21010KT 19/15 A3019 RMK A01 T01920153  RH  078%=      5-min Rain = 0
KAD1 111235Z 21010KT 19/15 A3019 RMK A01 T01930153  RH  077%=      5-min Rain = 0
KAD1 111236Z 20010KT 19/15 A3019 RMK A01 T01940153  RH  077%=      5-min Rain = 0
KAD1 111237Z 21010KT 19/15 A3019 RMK A01 T01940153  RH  077%=      5-min Rain = 0
KAD1 111238Z 20009KT 20/15 A3019 RMK A01 T01950153  RH  077%=      5-min Rain = 0
KAD1 111239Z 20010KT 20/15 A3019 RMK A01 T01950153  RH  076%=      5-min Rain = 0
KAD1 111240Z 20009KT 20/15 A3019 RMK A01 T01950153  RH  076%=      5-min Rain = 0
KAD1 111241Z 20009KT 20/15 A3019 RMK A01 T01960153  RH  076%=      5-min Rain = 0
KAD1 111242Z 20010KT 20/15 A3019 RMK A01 T01960153  RH  076%=      5-min Rain = 0
KAD1 111243Z 20010KT 20/15 A3019 RMK A01 T01960153  RH  076%=      5-min Rain = 0
KAD1 111244Z 21011KT 20/15 A3019 RMK A01 T01970153  RH  076%=      5-min Rain = 0
KAD1 111245Z 20010KT 20/15 A3019 RMK A01 T01970152  RH  075%=      5-min Rain = 0
KAD1 111246Z 20009KT 20/15 A3019 RMK A01 T01980153  RH  075%=      5-min Rain = 0
KAD1 111247Z 20010KT 20/15 A3019 RMK A01 T01990153  RH  075%=      5-min Rain = 0
KAD1 111248Z 20010KT 20/15 A3019 RMK A01 T02000153  RH  075%=      5-min Rain = 0
KAD1 111249Z 20010KT 20/15 A3019 RMK A01 T02000153  RH  074%=      5-min Rain = 0
KAD1 111250Z 20010KT 20/15 A3019 RMK A01 T02010153  RH  074%=      5-min Rain = 0
KAD1 111251Z 20009KT 20/15 A3019 RMK A01 T02010153  RH  074%=      5-min Rain = 0
KAD1 111252Z 20010KT 20/15 A3019 RMK A01 T02020153  RH  073%=      5-min Rain = 0
KAD1 111253Z 20010KT 20/15 A3019 RMK A01 T02030152  RH  073%=      5-min Rain = 0
KAD1 111254Z 20011KT 20/15 A3019 RMK A01 T02040153  RH  072%=      5-min Rain = 0
KAD1 111255Z 21009KT 20/15 A3019 RMK A01 T02040152  RH  072%=      5-min Rain = 0
KAD1 111256Z 21010KT 21/15 A3019 RMK A01 T02050152  RH  072%=      5-min Rain = 0
KAD1 111257Z 20010KT 21/15 A3019 RMK A01 T02050153  RH  072%=      5-min Rain = 0
KAD1 111258Z 21011KT 21/15 A3019 RMK A01 T02060153  RH  071%=      5-min Rain = 0
KAD1 111259Z 20010KT 21/15 A3019 RMK A01 T02070153  RH  071%=      5-min Rain = 0
KAD1 111300Z 20010KT 21/15 A3019 RMK A01 T02070152  RH  071%=      5-min Rain = 0
KAD1 111301Z 20009KT 21/15 A3019 RMK A01 T02070153  RH  071%=      5-min Rain = 0
KAD1 111302Z 20010KT 21/15 A3019 RMK A01 T02080153  RH  071%=      5-min Rain = 0
KAD1 111303Z 21010KT 21/15 A3019 RMK A01 T02080153  RH  070%=      5-min Rain = 0
KAD1 111304Z 20010KT 21/15 A3019 RMK A01 T02090152  RH  070%=      5-min Rain = 0
KAD1 111305Z 21011KT 21/15 A3019 RMK A01 T02090152  RH  070%=      5-min Rain = 0
KAD1 111306Z 21011KT 21/15 A3019 RMK A01 T02100153  RH  069%=      5-min Rain = 0
KAD1 111307Z 21011KT 21/15 A3019 RMK A01 T02110153  RH  069%=      5-min Rain = 0
KAD1 111308Z 21011KT 21/15 A3019 RMK A01 T02120153  RH  069%=      5-min Rain = 0
KAD1 111309Z 21010KT 21/15 A3019 RMK A01 T02120153  RH  069%=      5-min Rain = 0
KAD1 111310Z 21011KT 21/15 A3019 RMK A01 T02130153  RH  069%=      5-min Rain = 0
KAD1 111311Z 21010KT 21/15 A3019 RMK A01 T02130153  RH  069%=      5-min Rain = 0
KAD1 111312Z 21010KT 21/15 A3019 RMK A01 T02130153  RH  068%=      5-min Rain = 0
KAD1 111313Z 21010KT 22/15 A3019 RMK A01 T02150153  RH  068%=      5-min Rain = 0
KAD1 111314Z 21011KT 22/15 A3019 RMK A01 T02150153  RH  067%=      5-min Rain = 0
KAD1 111315Z 21010KT 22/15 A3019 RMK A01 T02160153  RH  067%=      5-min Rain = 0
KAD1 111316Z 21009KT 22/15 A3019 RMK A01 T02170153  RH  067%=      5-min Rain = 0
KAD1 111317Z 21011KT 22/15 A3019 RMK A01 T02180153  RH  067%=      5-min Rain = 0
KAD1 111318Z 21010KT 22/15 A3019 RMK A01 T02180154  RH  067%=      5-min Rain = 0
KAD1 111319Z 21012KT 22/15 A3019 RMK A01 T02190153  RH  066%=      5-min Rain = 0
KAD1 111320Z 21013KT 22/15 A3019 RMK A01 T02190153  RH  066%=      5-min Rain = 0
KAD1 111321Z 21010KT 22/15 A3019 RMK A01 T02200153  RH  066%=      5-min Rain = 0
KAD1 111322Z 21011KT 22/15 A3019 RMK A01 T02200154  RH  066%=      5-min Rain = 0
KAD1 111323Z 21014KT 22/15 A3019 RMK A01 T02220154  RH  065%=      5-min Rain = 0
KAD1 111324Z 21013KT 22/15 A3019 RMK A01 T02220153  RH  065%=      5-min Rain = 0
KAD1 111325Z 21014KT 22/15 A3019 RMK A01 T02220153  RH  065%=      5-min Rain = 0
KAD1 111326Z 21012KT 22/15 A3019 RMK A01 T02230153  RH  065%=      5-min Rain = 0
KAD1 111327Z 20013KT 22/15 A3019 RMK A01 T02240154  RH  064%=      5-min Rain = 0
KAD1 111328Z 20013KT 23/15 A3019 RMK A01 T02250153  RH  064%=      5-min Rain = 0
KAD1 111329Z 21012KT 23/15 A3019 RMK A01 T02250153  RH  064%=      5-min Rain = 0
KAD1 111330Z 20011KT 23/15 A3019 RMK A01 T02260154  RH  064%=      5-min Rain = 0
KAD1 111331Z 21010KT 23/16 A3019 RMK A01 T02270155  RH  064%=      5-min Rain = 0
KAD1 111332Z 21013KT 23/15 A3019 RMK A01 T02290154  RH  063%=      5-min Rain = 0
KAD1 111333Z 21012KT 23/15 A3019 RMK A01 T02280154  RH  063%=      5-min Rain = 0
KAD1 111334Z 21012KT 23/16 A3019 RMK A01 T02280155  RH  063%=      5-min Rain = 0
KAD1 111335Z 21013KT 23/15 A3019 RMK A01 T02290154  RH  063%=      5-min Rain = 0
KAD1 111336Z 21014KT 23/15 A3019 RMK A01 T02290154  RH  062%=      5-min Rain = 0
KAD1 111337Z 22014KT 23/15 A3019 RMK A01 T02300154  RH  062%=      5-min Rain = 0
KAD1 111338Z 21014KT 23/15 A3019 RMK A01 T02300153  RH  062%=      5-min Rain = 0
KAD1 111339Z 21010KT 23/15 A3019 RMK A01 T02310154  RH  062%=      5-min Rain = 0
KAD1 111340Z 21012KT 23/16 A3019 RMK A01 T02330155  RH  062%=      5-min Rain = 0
KAD1 111341Z 21012KT 23/15 A3019 RMK A01 T02340154  RH  061%=      5-min Rain = 0
KAD1 111342Z 21013KT 23/16 A3019 RMK A01 T02340155  RH  061%=      5-min Rain = 0
KAD1 111343Z 21014KT 23/15 A3019 RMK A01 T02330154  RH  061%=      5-min Rain = 0
KAD1 111344Z 21014KT 23/15 A3019 RMK A01 T02330154  RH  061%=      5-min Rain = 0
KAD1 111345Z 21013KT 23/15 A3019 RMK A01 T02330154  RH  061%=      5-min Rain = 0
KAD1 111346Z 20012KT 23/15 A3019 RMK A01 T02340154  RH  061%=      5-min Rain = 0
KAD1 111347Z 20014KT 24/15 A3019 RMK A01 T02350154  RH  061%=      5-min Rain = 0
KAD1 111348Z 21012KT 24/15 A3019 RMK A01 T02360154  RH  060%=      5-min Rain = 0
KAD1 111349Z 20010KT 24/16 A3019 RMK A01 T02360155  RH  060%=      5-min Rain = 0
KAD1 111350Z 21013KT 24/16 A3019 RMK A01 T02380155  RH  060%=      5-min Rain = 0
KAD1 111351Z 21012KT 24/16 A3019 RMK A01 T02390155  RH  059%=      5-min Rain = 0
KAD1 111352Z 21012KT 24/16 A3019 RMK A01 T02390155  RH  059%=      5-min Rain = 0
KAD1 111353Z 21013KT 24/15 A3019 RMK A01 T02400153  RH  058%=      5-min Rain = 0
KAD1 111354Z 22013KT 24/15 A3019 RMK A01 T02400154  RH  059%=      5-min Rain = 0
KAD1 111355Z 20012KT 24/15 A3019 RMK A01 T02400154  RH  058%=      5-min Rain = 0
KAD1 111356Z 22013KT 24/15 A3019 RMK A01 T02400154  RH  059%=      5-min Rain = 0
KAD1 111357Z 21013KT 24/15 A3019 RMK A01 T02410153  RH  058%=      5-min Rain = 0
KAD1 111358Z 21012KT 24/15 A3019 RMK A01 T02410154  RH  058%=      5-min Rain = 0
KAD1 111359Z 21013KT 24/15 A3019 RMK A01 T02420154  RH  058%=      5-min Rain = 0
KAD1 111400Z 21013KT 24/15 A3019 RMK A01 T02430153  RH  057%=      5-min Rain = 0
KAD1 111401Z 20013KT 24/15 A3019 RMK A01 T02430154  RH  058%=      5-min Rain = 0
KAD1 111402Z 21014KT 24/15 A3019 RMK A01 T02430153  RH  057%=      5-min Rain = 0
KAD1 111403Z 21012KT 24/15 A3019 RMK A01 T02430153  RH  057%=      5-min Rain = 0
KAD1 111404Z 20011KT 24/16 A3019 RMK A01 T02440155  RH  058%=      5-min Rain = 0
KAD1 111405Z 21014KT 25/16 A3019 RMK A01 T02460155  RH  057%=      5-min Rain = 0
KAD1 111406Z 21014KT 25/15 A3019 RMK A01 T02470154  RH  056%=      5-min Rain = 0
KAD1 111407Z 21014KT 25/15 A3019 RMK A01 T02460154  RH  057%=      5-min Rain = 0
KAD1 111408Z 20014KT 25/15 A3019 RMK A01 T02460153  RH  056%=      5-min Rain = 0
KAD1 111409Z 21015KT 25/15 A3019 RMK A01 T02460154  RH  057%=      5-min Rain = 0
KAD1 111410Z 21014KT 25/15 A3019 RMK A01 T02460154  RH  056%=      5-min Rain = 0
KAD1 111411Z 22014KT 25/15 A3019 RMK A01 T02460154  RH  056%=      5-min Rain = 0
KAD1 111412Z 20015KT 25/15 A3019 RMK A01 T02470154  RH  056%=      5-min Rain = 0
KAD1 111413Z 21015KT 25/15 A3019 RMK A01 T02470154  RH  056%=      5-min Rain = 0
KAD1 111414Z 21014KT 25/15 A3019 RMK A01 T02480154  RH  056%=      5-min Rain = 0
KAD1 111415Z 21015KT 25/15 A3019 RMK A01 T02490154  RH  056%=      5-min Rain = 0
KAD1 111416Z 20014KT 25/15 A3019 RMK A01 T02490154  RH  056%=      5-min Rain = 0
KAD1 111417Z 21014KT 25/15 A3019 RMK A01 T02490154  RH  056%=      5-min Rain = 0
KAD1 111418Z 21015KT 25/16 A3019 RMK A01 T02490155  RH  056%=      5-min Rain = 0
KAD1 111419Z 21015KT 25/16 A3019 RMK A01 T02500155  RH  055%=      5-min Rain = 0
KAD1 111420Z 21015KT 25/16 A3019 RMK A01 T02500155  RH  056%=      5-min Rain = 0
KAD1 111421Z 21013KT 25/16 A3019 RMK A01 T02500155  RH  056%=      5-min Rain = 0
KAD1 111422Z 21015KT 25/16 A3019 RMK A01 T02500155  RH  056%=      5-min Rain = 0
KAD1 111423Z 21013KT 25/16 A3019 RMK A01 T02500155  RH  056%=      5-min Rain = 0
KAD1 111424Z 22015KT 25/16 A3019 RMK A01 T02510155  RH  055%=      5-min Rain = 0
KAD1 111425Z 22015KT 25/16 A3019 RMK A01 T02520155  RH  055%=      5-min Rain = 0
KAD1 111426Z 22014KT 25/16 A3019 RMK A01 T02520155  RH  055%=      5-min Rain = 0
KAD1 111427Z 22014KT 25/16 A3019 RMK A01 T02530155  RH  055%=      5-min Rain = 0
KAD1 111428Z 22013KT 25/16 A3019 RMK A01 T02530156  RH  055%=      5-min Rain = 0
KAD1 111429Z 23014KT 25/16 A3019 RMK A01 T02540155  RH  054%=      5-min Rain = 0
KAD1 111430Z 22015KT 25/16 A3019 RMK A01 T02540156  RH  055%=      5-min Rain = 0
KAD1 111431Z 22014KT 25/16 A3019 RMK A01 T02540156  RH  054%=      5-min Rain = 0
KAD1 111432Z 21015KT 26/16 A3019 RMK A01 T02560155  RH  054%=      5-min Rain = 0
KAD1 111433Z 21013KT 26/16 A3019 RMK A01 T02560155  RH  054%=      5-min Rain = 0
KAD1 111434Z 21014KT 26/16 A3019 RMK A01 T02560155  RH  054%=      5-min Rain = 0
KAD1 111435Z 22014KT 26/16 A3019 RMK A01 T02560156  RH  054%=      5-min Rain = 0
KAD1 111436Z 23015KT 26/16 A3019 RMK A01 T02560155  RH  054%=      5-min Rain = 0
KAD1 111437Z 23014KT 26/16 A3019 RMK A01 T02560155  RH  054%=      5-min Rain = 0
KAD1 111438Z 22011G17KT 26/16 A3019 RMK A01 T02560155  RH  054%=      5-min Rain = 0
KAD1 111439Z 22014KT 26/15 A3019 RMK A01 T02570154  RH  053%=      5-min Rain = 0
KAD1 111440Z 23014KT 26/15 A3019 RMK A01 T02580154  RH  053%=      5-min Rain = 0
KAD1 111441Z 22014KT 26/15 A3019 RMK A01 T02580154  RH  053%=      5-min Rain = 0
KAD1 111442Z 22013KT 26/16 A3019 RMK A01 T02570155  RH  053%=      5-min Rain = 0
KAD1 111443Z 23016KT 26/15 A3019 RMK A01 T02570153  RH  053%=      5-min Rain = 0
KAD1 111444Z 23013KT 26/15 A3019 RMK A01 T02570153  RH  053%=      5-min Rain = 0
KAD1 111445Z 23013KT 26/16 A3019 RMK A01 T02580155  RH  053%=      5-min Rain = 0
KAD1 111446Z 22014KT 26/15 A3019 RMK A01 T02590154  RH  052%=      5-min Rain = 0
KAD1 111447Z 23012KT 26/16 A3019 RMK A01 T02590155  RH  052%=      5-min Rain = 0
KAD1 111448Z 23015KT 26/16 A3019 RMK A01 T02600155  RH  052%=      5-min Rain = 0
KAD1 111449Z 22014KT 26/16 A3019 RMK A01 T02600155  RH  052%=      5-min Rain = 0
KAD1 111450Z 21013KT 26/16 A3019 RMK A01 T02600155  RH  052%=      5-min Rain = 0
KAD1 111451Z 24013KT 26/16 A3019 RMK A01 T02600155  RH  052%=      5-min Rain = 0
KAD1 111452Z 22013KT 26/16 A3019 RMK A01 T02620155  RH  052%=      5-min Rain = 0
KAD1 111453Z 22013KT 26/16 A3019 RMK A01 T02620155  RH  052%=      5-min Rain = 0
KAD1 111454Z 22012KT 26/16 A3019 RMK A01 T02630156  RH  052%=      5-min Rain = 0
KAD1 111455Z 23009KT 26/16 A3019 RMK A01 T02630157  RH  052%=      5-min Rain = 0
KAD1 111456Z 22010KT 27/16 A3019 RMK A01 T02650156  RH  051%=      5-min Rain = 0
KAD1 111457Z 21011KT 27/16 A3019 RMK A01 T02670157  RH  051%=      5-min Rain = 0
KAD1 111458Z 22013G19KT 27/16 A3019 RMK A01 T02700157  RH  050%=      5-min Rain = 0
KAD1 111459Z 23014KT 27/16 A3019 RMK A01 T02710155  RH  049%=      5-min Rain = 0
KAD1 111500Z 23013KT 27/16 A3019 RMK A01 T02680155  RH  050%=      5-min Rain = 0
KAD1 111501Z 22010KT 27/16 A3019 RMK A01 T02650155  RH  051%=      5-min Rain = 0
KAD1 111502Z 22013KT 27/16 A3019 RMK A01 T02660156  RH  051%=      5-min Rain = 0
KAD1 111503Z 22015KT 27/15 A3019 RMK A01 T02670154  RH  050%=      5-min Rain = 0
KAD1 111504Z 21013KT 27/15 A3019 RMK A01 T02660151  RH  049%=      5-min Rain = 0
KAD1 111505Z 21014KT 27/15 A3019 RMK A01 T02660154  RH  050%=      5-min Rain = 0
KAD1 111506Z 22013KT 27/15 A3019 RMK A01 T02680153  RH  049%=      5-min Rain = 0
KAD1 111507Z 22013KT 27/15 A3019 RMK A01 T02670154  RH  050%=      5-min Rain = 0
KAD1 111508Z 23014KT 27/15 A3019 RMK A01 T02670153  RH  050%=      5-min Rain = 0
KAD1 111509Z 22012KT 27/15 A3019 RMK A01 T02660153  RH  050%=      5-min Rain = 0
KAD1 111510Z 22011KT 27/15 A3019 RMK A01 T02660154  RH  050%=      5-min Rain = 0
KAD1 111511Z 22012KT 27/15 A3019 RMK A01 T02670153  RH  050%=      5-min Rain = 0
KAD1 111512Z 22012KT 27/15 A3019 RMK A01 T02690153  RH  049%=      5-min Rain = 0
KAD1 111513Z 21011KT 27/15 A3019 RMK A01 T02710152  RH  048%=      5-min Rain = 0
KAD1 111514Z 22013KT 27/15 A3019 RMK A01 T02730154  RH  048%=      5-min Rain = 0
KAD1 111515Z 21011KT 27/15 A3019 RMK A01 T02720153  RH  048%=      5-min Rain = 0
KAD1 111516Z 23011KT 27/15 A3019 RMK A01 T02720154  RH  048%=      5-min Rain = 0
KAD1 111517Z 23013KT 27/15 A3019 RMK A01 T02740152  RH  047%=      5-min Rain = 0
KAD1 111518Z 23012KT 27/15 A3019 RMK A01 T02720153  RH  048%=      5-min Rain = 0
KAD1 111519Z 21011G16KT 27/15 A3019 RMK A01 T02690153  RH  049%=      5-min Rain = 0
KAD1 111520Z 21015KT 27/15 A3019 RMK A01 T02700153  RH  049%=      5-min Rain = 0
KAD1 111521Z 22012KT 27/15 A3019 RMK A01 T02710152  RH  048%=      5-min Rain = 0
KAD1 111522Z 21013KT 27/15 A3019 RMK A01 T02710152  RH  048%=      5-min Rain = 0
KAD1 111523Z 23013KT 27/15 A3019 RMK A01 T02710150  RH  047%=      5-min Rain = 0
KAD1 111524Z 23013KT 27/15 A3019 RMK A01 T02710149  RH  047%=      5-min Rain = 0
KAD1 111525Z 22014KT 27/15 A3019 RMK A01 T02720152  RH  048%=      5-min Rain = 0
KAD1 111526Z 23011KT 27/15 A3019 RMK A01 T02730153  RH  048%=      5-min Rain = 0
KAD1 111527Z 22013KT 27/15 A3019 RMK A01 T02720153  RH  048%=      5-min Rain = 0
KAD1 111528Z 21012KT 27/15 A3018 RMK A01 T02730152  RH  048%=      5-min Rain = 0
KAD1 111529Z 21015KT 28/15 A3018 RMK A01 T02760154  RH  047%=      5-min Rain = 0
KAD1 111530Z 22011KT 28/15 A3018 RMK A01 T02750153  RH  047%=      5-min Rain = 0
KAD1 111531Z 22010KT 28/15 A3018 RMK A01 T02770154  RH  047%=      5-min Rain = 0
KAD1 111532Z 20012KT 28/15 A3018 RMK A01 T02790154  RH  046%=      5-min Rain = 0
KAD1 111533Z 20014KT 28/15 A3018 RMK A01 T02770153  RH  047%=      5-min Rain = 0
KAD1 111534Z 21013KT 28/15 A3018 RMK A01 T02770154  RH  047%=      5-min Rain = 0
KAD1 111535Z 20012KT 28/15 A3018 RMK A01 T02780154  RH  047%=      5-min Rain = 0
KAD1 111536Z 22012KT 28/15 A3018 RMK A01 T02800152  RH  046%=      5-min Rain = 0
KAD1 111537Z 21011KT 28/15 A3018 RMK A01 T02800153  RH  046%=      5-min Rain = 0
KAD1 111538Z 21008KT 28/16 A3018 RMK A01 T02790155  RH  047%=      5-min Rain = 0
KAD1 111539Z 23013G18KT 28/15 A3018 RMK A01 T02810154  RH  046%=      5-min Rain = 0
KAD1 111540Z 22016G21KT 28/15 A3018 RMK A01 T02830152  RH  045%=      5-min Rain = 0
KAD1 111541Z 21014KT 28/15 A3018 RMK A01 T02800152  RH  045%=      5-min Rain = 0
KAD1 111542Z 22011KT 28/15 A3018 RMK A01 T02780150  RH  045%=      5-min Rain = 0
KAD1 111543Z 22011KT 28/15 A3018 RMK A01 T02780150  RH  046%=      5-min Rain = 0
KAD1 111544Z 23011KT 28/15 A3018 RMK A01 T02790150  RH  045%=      5-min Rain = 0
KAD1 111545Z 23011KT 28/15 A3018 RMK A01 T02790150  RH  045%=      5-min Rain = 0
KAD1 111546Z 22011KT 28/15 A3018 RMK A01 T02800153  RH  046%=      5-min Rain = 0
KAD1 111547Z 21011KT 29/15 A3018 RMK A01 T02850154  RH  045%=      5-min Rain = 0
KAD1 111548Z 22010KT 29/15 A3018 RMK A01 T02860152  RH  044%=      5-min Rain = 0
KAD1 111549Z 23011KT 29/15 A3018 RMK A01 T02860152  RH  044%=      5-min Rain = 0
KAD1 111550Z 22013KT 29/15 A3018 RMK A01 T02850149  RH  044%=      5-min Rain = 0
KAD1 111551Z 21011KT 28/15 A3018 RMK A01 T02830149  RH  044%=      5-min Rain = 0
KAD1 111552Z 21013G18KT 28/15 A3018 RMK A01 T02820150  RH  045%=      5-min Rain = 0
KAD1 111553Z 21010KT 28/15 A3018 RMK A01 T02830149  RH  044%=      5-min Rain = 0
KAD1 111554Z 21011KT 28/15 A3018 RMK A01 T02790149  RH  045%=      5-min Rain = 0
KAD1 111555Z 21012KT 28/15 A3018 RMK A01 T02800149  RH  045%=      5-min Rain = 0
KAD1 111556Z 21010KT 29/15 A3018 RMK A01 T02850148  RH  043%=      5-min Rain = 0
KAD1 111557Z 21010G15KT 29/15 A3018 RMK A01 T02850150  RH  044%=      5-min Rain = 0
KAD1 111558Z 22014KT 28/15 A3018 RMK A01 T02830149  RH  044%=      5-min Rain = 0
KAD1 111559Z 23011KT 28/15 A3018 RMK A01 T02840150  RH  044%=      5-min Rain = 0
KAD1 111600Z 23010KT 28/15 A3018 RMK A01 T02830148  RH  044%=      5-min Rain = 0
KAD1 111601Z 20009G15KT 28/15 A3018 RMK A01 T02800150  RH  045%=      5-min Rain = 0
KAD1 111602Z 18014KT 28/15 A3018 RMK A01 T02820150  RH  044%=      5-min Rain = 0
KAD1 111603Z 19013KT 28/15 A3018 RMK A01 T02840147  RH  043%=      5-min Rain = 0
KAD1 111604Z 19011KT 28/15 A3018 RMK A01 T02810148  RH  044%=      5-min Rain = 0
KAD1 111605Z 18013KT 28/15 A3018 RMK A01 T02840151  RH  044%=      5-min Rain = 0
KAD1 111606Z 18013KT 29/15 A3018 RMK A01 T02880150  RH  043%=      5-min Rain = 0
KAD1 111607Z 18011KT 29/15 A3018 RMK A01 T02880150  RH  043%=      5-min Rain = 0
KAD1 111608Z 18011KT 29/15 A3018 RMK A01 T02890149  RH  043%=      5-min Rain = 0
KAD1 111609Z 18013KT 29/15 A3018 RMK A01 T02870149  RH  043%=      5-min Rain = 0
KAD1 111610Z 19015KT 29/15 A3018 RMK A01 T02880148  RH  043%=      5-min Rain = 0
KAD1 111611Z 19013KT 29/15 A3018 RMK A01 T02880147  RH  042%=      5-min Rain = 0
KAD1 111612Z 20011KT 29/14 A3018 RMK A01 T02870144  RH  042%=      5-min Rain = 0
KAD1 111613Z 18008KT 28/14 A3018 RMK A01 T02830144  RH  042%=      5-min Rain = 0
KAD1 111614Z 19013G18KT 28/15 A3018 RMK A01 T02820146  RH  043%=      5-min Rain = 0
KAD1 111615Z 23013KT 29/15 A3018 RMK A01 T02860147  RH  043%=      5-min Rain = 0
KAD1 111616Z 22011KT 29/15 A3018 RMK A01 T02860147  RH  043%=      5-min Rain = 0
KAD1 111617Z 20007KT 29/15 A3018 RMK A01 T02850147  RH  043%=      5-min Rain = 0
KAD1 111618Z 21009KT 29/15 A3018 RMK A01 T02850145  RH  042%=      5-min Rain = 0
KAD1 111619Z 21012G17KT 29/14 A3018 RMK A01 T02850144  RH  042%=      5-min Rain = 0
KAD1 111620Z 21008KT 28/14 A3018 RMK A01 T02840144  RH  042%=      5-min Rain = 0
KAD1 111621Z 21012KT 29/14 A3018 RMK A01 T02850143  RH  042%=      5-min Rain = 0
KAD1 111622Z 22010KT 29/14 A3018 RMK A01 T02870144  RH  042%=      5-min Rain = 0
KAD1 111623Z 23012KT 29/14 A3018 RMK A01 T02910144  RH  041%=      5-min Rain = 0
KAD1 111624Z 21012KT 29/14 A3018 RMK A01 T02920143  RH  040%=      5-min Rain = 0
KAD1 111625Z 19014KT 29/14 A3018 RMK A01 T02920142  RH  040%=      5-min Rain = 0
KAD1 111626Z 20010KT 29/14 A3018 RMK A01 T02890139  RH  040%=      5-min Rain = 0
KAD1 111627Z 21010KT 29/14 A3018 RMK A01 T02870141  RH  041%=      5-min Rain = 0
KAD1 111628Z 21011KT 29/14 A3018 RMK A01 T02860140  RH  041%=      5-min Rain = 0
KAD1 111629Z 22010KT 29/14 A3018 RMK A01 T02870139  RH  040%=      5-min Rain = 0
KAD1 111630Z 21009KT 29/14 A3018 RMK A01 T02880139  RH  040%=      5-min Rain = 0
KAD1 111631Z 18009KT 29/14 A3018 RMK A01 T02890141  RH  040%=      5-min Rain = 0
KAD1 111632Z 19009G15KT 29/14 A3018 RMK A01 T02910143  RH  040%=      5-min Rain = 0
KAD1 111633Z 20014KT 30/14 A3017 RMK A01 T02950143  RH  039%=      5-min Rain = 0
KAD1 111634Z 21012KT 29/14 A3018 RMK A01 T02940141  RH  039%=      5-min Rain = 0
KAD1 111635Z 19011KT 29/14 A3018 RMK A01 T02920141  RH  040%=      5-min Rain = 0
KAD1 111636Z 19012KT 29/14 A3018 RMK A01 T02920144  RH  040%=      5-min Rain = 0
KAD1 111637Z 19013KT 29/14 A3018 RMK A01 T02930143  RH  040%=      5-min Rain = 0
KAD1 111638Z 18012KT 29/14 A3018 RMK A01 T02940139  RH  039%=      5-min Rain = 0
KAD1 111639Z 17010KT 29/14 A3018 RMK A01 T02910140  RH  040%=      5-min Rain = 0
KAD1 111640Z 19009KT 29/14 A3017 RMK A01 T02910141  RH  040%=      5-min Rain = 0
KAD1 111641Z 21009KT 29/14 A3017 RMK A01 T02930143  RH  040%=      5-min Rain = 0
KAD1 111642Z 18011KT 29/14 A3017 RMK A01 T02940144  RH  040%=      5-min Rain = 0
KAD1 111643Z 19014KT 30/15 A3017 RMK A01 T02960145  RH  040%=      5-min Rain = 0
KAD1 111644Z 21011KT 30/14 A3017 RMK A01 T02950143  RH  040%=      5-min Rain = 0
KAD1 111645Z 20010KT 29/14 A3017 RMK A01 T02930142  RH  040%=      5-min Rain = 0
KAD1 111646Z 18012KT 29/14 A3017 RMK A01 T02920143  RH  040%=      5-min Rain = 0
KAD1 111647Z 17014KT 30/14 A3017 RMK A01 T02950143  RH  039%=      5-min Rain = 0
KAD1 111648Z 18011KT 29/14 A3017 RMK A01 T02940143  RH  040%=      5-min Rain = 0
KAD1 111649Z 18012KT 29/14 A3017 RMK A01 T02940141  RH  039%=      5-min Rain = 0
KAD1 111650Z 20011KT 29/14 A3017 RMK A01 T02930140  RH  039%=      5-min Rain = 0
KAD1 111651Z 19013KT 29/14 A3017 RMK A01 T02940141  RH  039%=      5-min Rain = 0
KAD1 111652Z 17010KT 30/14 A3017 RMK A01 T02960138  RH  038%=      5-min Rain = 0
KAD1 111653Z 17013KT 29/14 A3017 RMK A01 T02930137  RH  038%=      5-min Rain = 0
KAD1 111654Z 18014KT 29/14 A3017 RMK A01 T02920141  RH  040%=      5-min Rain = 0
KAD1 111655Z 17016KT 30/14 A3017 RMK A01 T02950142  RH  039%=      5-min Rain = 0
KAD1 111656Z 18014KT 30/14 A3017 RMK A01 T02960140  RH  039%=      5-min Rain = 0
KAD1 111657Z 18010KT 29/14 A3017 RMK A01 T02920140  RH  039%=      5-min Rain = 0
KAD1 111658Z 18013KT 29/14 A3017 RMK A01 T02940142  RH  039%=      5-min Rain = 0
KAD1 111659Z 18013KT 30/14 A3017 RMK A01 T02950140  RH  039%=      5-min Rain = 0
KAD1 111700Z 18014KT 30/14 A3017 RMK A01 T02970138  RH  038%=      5-min Rain = 0
KAD1 111701Z 18016KT 30/14 A3017 RMK A01 T02990137  RH  037%=      5-min Rain = 0
KAD1 111702Z 18016KT 30/14 A3017 RMK A01 T02960138  RH  038%=      5-min Rain = 0
KAD1 111703Z 20016KT 30/14 A3017 RMK A01 T02950138  RH  038%=      5-min Rain = 0
KAD1 111704Z 20013KT 29/14 A3017 RMK A01 T02940138  RH  039%=      5-min Rain = 0
KAD1 111705Z 21011KT 30/14 A3017 RMK A01 T02950139  RH  039%=      5-min Rain = 0
KAD1 111706Z 21009KT 29/14 A3017 RMK A01 T02920139  RH  039%=      5-min Rain = 0
KAD1 111707Z 20010G16KT 29/14 A3017 RMK A01 T02910141  RH  040%=      5-min Rain = 0
KAD1 111708Z 20014G19KT 29/14 A3017 RMK A01 T02930140  RH  039%=      5-min Rain = 0
KAD1 111709Z 20013KT 30/14 A3017 RMK A01 T02950142  RH  039%=      5-min Rain = 0
KAD1 111710Z 20013G18KT 30/14 A3017 RMK A01 T02980141  RH  038%=      5-min Rain = 0
KAD1 111711Z 20013KT 30/14 A3017 RMK A01 T02980141  RH  038%=      5-min Rain = 0
KAD1 111712Z 20011G16KT 30/14 A3017 RMK A01 T02990141  RH  038%=      5-min Rain = 0
KAD1 111713Z 20011KT 30/14 A3017 RMK A01 T02980141  RH  038%=      5-min Rain = 0
KAD1 111714Z 21013KT 30/14 A3017 RMK A01 T02970142  RH  039%=      5-min Rain = 0
KAD1 111715Z 22011KT 30/14 A3017 RMK A01 T02970141  RH  039%=      5-min Rain = 0
KAD1 111716Z 22011KT 30/14 A3017 RMK A01 T02950140  RH  039%=      5-min Rain = 0
KAD1 111717Z 18011KT 30/14 A3017 RMK A01 T02960143  RH  039%=      5-min Rain = 0
KAD1 111718Z 18016G21KT 30/14 A3017 RMK A01 T03000143  RH  038%=      5-min Rain = 0
KAD1 111719Z 19018KT 30/14 A3017 RMK A01 T03020139  RH  037%=      5-min Rain = 0
KAD1 111720Z 18016KT 30/14 A3017 RMK A01 T03010137  RH  037%=      5-min Rain = 0
KAD1 111721Z 17014KT 30/14 A3017 RMK A01 T03000135  RH  036%=      5-min Rain = 0
KAD1 111722Z 17013KT 30/14 A3017 RMK A01 T03010137  RH  037%=      5-min Rain = 0
KAD1 111723Z 16014KT 30/14 A3017 RMK A01 T03030138  RH  037%=      5-min Rain = 0
KAD1 111724Z 19011KT 30/14 A3017 RMK A01 T03020138  RH  037%=      5-min Rain = 0
KAD1 111725Z 19011G16KT 30/14 A3017 RMK A01 T03010137  RH  037%=      5-min Rain = 0
KAD1 111726Z 20014KT 30/14 A3017 RMK A01 T03040137  RH  036%=      5-min Rain = 0
KAD1 111727Z 19011KT 30/13 A3017 RMK A01 T03030133  RH  035%=      5-min Rain = 0
KAD1 111728Z 20012KT 30/13 A3017 RMK A01 T03010134  RH  036%=      5-min Rain = 0
KAD1 111729Z 19010KT 30/13 A3017 RMK A01 T03030131  RH  035%=      5-min Rain = 0
KAD1 111730Z 20013G18KT 31/14 A3017 RMK A01 T03050137  RH  036%=      5-min Rain = 0
KAD1 111731Z 19015KT 31/13 A3017 RMK A01 T03080129  RH  033%=      5-min Rain = 0
KAD1 111732Z 19015KT 31/13 A3017 RMK A01 T03070132  RH  034%=      5-min Rain = 0
KAD1 111733Z 19013KT 31/13 A3017 RMK A01 T03070130  RH  034%=      5-min Rain = 0
KAD1 111734Z 21013KT 30/13 A3017 RMK A01 T03040131  RH  035%=      5-min Rain = 0
KAD1 111735Z 20011KT 30/13 A3017 RMK A01 T03020134  RH  036%=      5-min Rain = 0
KAD1 111736Z 17013G18KT 30/14 A3017 RMK A01 T03020136  RH  036%=      5-min Rain = 0
KAD1 111737Z 16018KT 31/14 A3017 RMK A01 T03050141  RH  037%=      5-min Rain = 0
KAD1 111738Z 18017KT 31/14 A3016 RMK A01 T03050137  RH  036%=      5-min Rain = 0
KAD1 111739Z 19016KT 31/13 A3016 RMK A01 T03060134  RH  035%=      5-min Rain = 0
KAD1 111740Z 20011KT 30/13 A3016 RMK A01 T03040133  RH  035%=      5-min Rain = 0
KAD1 111741Z 18012KT 30/13 A3016 RMK A01 T03010133  RH  036%=      5-min Rain = 0
KAD1 111742Z 17014KT 30/13 A3016 RMK A01 T03010134  RH  036%=      5-min Rain = 0
KAD1 111743Z 18015KT 30/13 A3016 RMK A01 T03020133  RH  036%=      5-min Rain = 0
KAD1 111744Z 17017KT 30/14 A3016 RMK A01 T03030135  RH  036%=      5-min Rain = 0
KAD1 111745Z 15014KT 31/14 A3016 RMK A01 T03050136  RH  036%=      5-min Rain = 0
KAD1 111746Z 17015G20KT 31/14 A3016 RMK A01 T03060137  RH  036%=      5-min Rain = 0
KAD1 111747Z 17017KT 31/13 A3016 RMK A01 T03090131  RH  034%=      5-min Rain = 0
KAD1 111748Z 17015KT 31/13 A3016 RMK A01 T03070131  RH  034%=      5-min Rain = 0
KAD1 111749Z 17018KT 31/13 A3016 RMK A01 T03080134  RH  035%=      5-min Rain = 0
KAD1 111750Z 18019KT 31/13 A3016 RMK A01 T03100133  RH  034%=      5-min Rain = 0
KAD1 111751Z 17012KT 31/13 A3016 RMK A01 T03090134  RH  034%=      5-min Rain = 0
KAD1 111752Z 16011KT 31/14 A3016 RMK A01 T03060135  RH  035%=      5-min Rain = 0
KAD1 111753Z 16011KT 31/14 A3016 RMK A01 T03050136  RH  036%=      5-min Rain = 0
KAD1 111754Z 17016KT 30/13 A3016 RMK A01 T03030133  RH  035%=      5-min Rain = 0
KAD1 111755Z 18013KT 30/13 A3016 RMK A01 T03030130  RH  035%=      5-min Rain = 0
KAD1 111756Z 18014G19KT 30/13 A3016 RMK A01 T03010130  RH  035%=      5-min Rain = 0
KAD1 111757Z 17013KT 30/13 A3016 RMK A01 T03030133  RH  035%=      5-min Rain = 0
KAD1 111758Z 18014KT 30/13 A3016 RMK A01 T03010134  RH  036%=      5-min Rain = 0
KAD1 111759Z 18015KT 30/13 A3016 RMK A01 T03010134  RH  036%=      5-min Rain = 0
KAD1 111800Z 16015KT 30/14 A3016 RMK A01 T03030136  RH  036%=      5-min Rain = 0
KAD1 111801Z 17015G20KT 30/14 A3016 RMK A01 T03030139  RH  037%=      5-min Rain = 0
KAD1 111802Z 17016KT 31/14 A3016 RMK A01 T03060138  RH  036%=      5-min Rain = 0
KAD1 111803Z 18016G24KT 30/14 A3016 RMK A01 T03030135  RH  036%=      5-min Rain = 0
KAD1 111804Z 19020G26KT 30/14 A3015 RMK A01 T02980135  RH  037%=      5-min Rain = 0
KAD1 111805Z 19019KT 30/13 A3015 RMK A01 T03000134  RH  036%=      5-min Rain = 0
KAD1 111806Z 18020KT 30/13 A3015 RMK A01 T03030134  RH  035%=      5-min Rain = 0
KAD1 111807Z 17012G17KT 30/14 A3015 RMK A01 T03040137  RH  036%=      5-min Rain = 0
KAD1 111808Z 18017KT 31/14 A3015 RMK A01 T03080136  RH  035%=      5-min Rain = 0
KAD1 111809Z 18015KT 31/14 A3015 RMK A01 T03120135  RH  034%=      5-min Rain = 0
KAD1 111810Z 18013KT 32/13 A3015 RMK A01 T03150134  RH  033%=      5-min Rain = 0
KAD1 111811Z 19013KT 32/13 A3015 RMK A01 T03150134  RH  033%=      5-min Rain = 0
KAD1 111812Z 20011KT 31/13 A3015 RMK A01 T03090133  RH  034%=      5-min Rain = 0
KAD1 111813Z 19009KT 30/13 A3015 RMK A01 T03030133  RH  035%=      5-min Rain = 0
KAD1 111814Z 18016G22KT 30/14 A3015 RMK A01 T03030135  RH  036%=      5-min Rain = 0
KAD1 111815Z 18019KT 31/14 A3015 RMK A01 T03070136  RH  035%=      5-min Rain = 0
KAD1 111816Z 16014KT 31/14 A3015 RMK A01 T03100137  RH  035%=      5-min Rain = 0
KAD1 111817Z 18016KT 31/14 A3015 RMK A01 T03080138  RH  035%=      5-min Rain = 0
KAD1 111818Z 19016KT 31/14 A3015 RMK A01 T03080136  RH  035%=      5-min Rain = 0
KAD1 111819Z 18017KT 31/14 A3015 RMK A01 T03090137  RH  035%=      5-min Rain = 0
KAD1 111820Z 19015KT 31/14 A3015 RMK A01 T03090135  RH  035%=      5-min Rain = 0
KAD1 111821Z 19014KT 31/13 A3015 RMK A01 T03050134  RH  035%=      5-min Rain = 0
KAD1 111822Z 18016KT 31/14 A3015 RMK A01 T03060135  RH  035%=      5-min Rain = 0
KAD1 111823Z 17016G23KT 31/14 A3015 RMK A01 T03080138  RH  035%=      5-min Rain = 0
KAD1 111824Z 18018G23KT 31/14 A3015 RMK A01 T03100136  RH  035%=      5-min Rain = 0
KAD1 111825Z 18014G19KT 31/14 A3015 RMK A01 T03130136  RH  034%=      5-min Rain = 0
KAD1 111826Z 16014KT 31/13 A3015 RMK A01 T03120134  RH  034%=      5-min Rain = 0
KAD1 111827Z 17016G21KT 31/14 A3015 RMK A01 T03090136  RH  035%=      5-min Rain = 0
KAD1 111828Z 16018KT 31/14 A3015 RMK A01 T03120135  RH  034%=      5-min Rain = 0
KAD1 111829Z 16019KT 31/14 A3015 RMK A01 T03100136  RH  035%=      5-min Rain = 0
KAD1 111830Z 16016KT 31/14 A3015 RMK A01 T03090135  RH  035%=      5-min Rain = 0
KAD1 111831Z 17016KT 31/13 A3015 RMK A01 T03110133  RH  034%=      5-min Rain = 0
KAD1 111832Z 17012KT 31/13 A3015 RMK A01 T03110132  RH  034%=      5-min Rain = 0
KAD1 111833Z 18017KT 31/14 A3015 RMK A01 T03090135  RH  035%=      5-min Rain = 0
KAD1 111834Z 19015KT 31/13 A3015 RMK A01 T03110134  RH  034%=      5-min Rain = 0
KAD1 111835Z 18014KT 31/13 A3015 RMK A01 T03130132  RH  033%=      5-min Rain = 0
KAD1 111836Z 19016G21KT 31/13 A3015 RMK A01 T03100132  RH  034%=      5-min Rain = 0
KAD1 111837Z 15017G23KT 31/13 A3015 RMK A01 T03070134  RH  035%=      5-min Rain = 0
KAD1 111838Z 16020KT 31/14 A3014 RMK A01 T03080138  RH  035%=      5-min Rain = 0
KAD1 111839Z 17011KT 31/14 A3015 RMK A01 T03100138  RH  035%=      5-min Rain = 0
KAD1 111840Z 18013KT 31/14 A3014 RMK A01 T03120137  RH  035%=      5-min Rain = 0
KAD1 111841Z 18016G21KT 31/14 A3014 RMK A01 T03100136  RH  035%=      5-min Rain = 0
KAD1 111842Z 17020G25KT 31/14 A3014 RMK A01 T03070137  RH  035%=      5-min Rain = 0
KAD1 111843Z 17021KT 31/13 A3014 RMK A01 T03060134  RH  035%=      5-min Rain = 0
KAD1 111844Z 17019KT 30/13 A3014 RMK A01 T03030134  RH  035%=      5-min Rain = 0
KAD1 111845Z 17017KT 30/13 A3014 RMK A01 T03030134  RH  036%=      5-min Rain = 0
KAD1 111846Z 17012KT 30/14 A3014 RMK A01 T03030136  RH  036%=      5-min Rain = 0
KAD1 111847Z 17014KT 31/14 A3014 RMK A01 T03050139  RH  036%=      5-min Rain = 0
KAD1 111848Z 17018G24KT 31/14 A3014 RMK A01 T03100140  RH  036%=      5-min Rain = 0
KAD1 111849Z 18017KT 31/14 A3014 RMK A01 T03090135  RH  034%=      5-min Rain = 0
KAD1 111850Z 17017KT 30/13 A3014 RMK A01 T03040133  RH  035%=      5-min Rain = 0
KAD1 111851Z 17014KT 31/14 A3014 RMK A01 T03050135  RH  035%=      5-min Rain = 0
KAD1 111852Z 17017KT 31/14 A3014 RMK A01 T03090136  RH  035%=      5-min Rain = 0
KAD1 111853Z 17018KT 31/13 A3014 RMK A01 T03110134  RH  034%=      5-min Rain = 0
KAD1 111854Z 17015KT 31/14 A3014 RMK A01 T03090136  RH  035%=      5-min Rain = 0
KAD1 111855Z 17017KT 31/14 A3014 RMK A01 T03130135  RH  034%=      5-min Rain = 0
KAD1 111856Z 16018KT 31/14 A3014 RMK A01 T03140136  RH  034%=      5-min Rain = 0
KAD1 111857Z 17017KT 31/14 A3014 RMK A01 T03130140  RH  035%=      5-min Rain = 0
KAD1 111858Z 18018KT 31/14 A3014 RMK A01 T03140137  RH  034%=      5-min Rain = 0
KAD1 111859Z 17016KT 31/14 A3014 RMK A01 T03140135  RH  034%=      5-min Rain = 0
KAD1 111900Z 17013KT 31/14 A3014 RMK A01 T03100136  RH  035%=      5-min Rain = 0
KAD1 111901Z 17015G23KT 31/14 A3013 RMK A01 T03130139  RH  035%=      5-min Rain = 0
KAD1 111902Z 19018KT 32/14 A3013 RMK A01 T03200138  RH  033%=      5-min Rain = 0
KAD1 111903Z 19018KT 33/14 A3013 RMK A01 T03260136  RH  032%=      5-min Rain = 0
KAD1 111904Z 20013G19KT 33/13 A3013 RMK A01 T03260134  RH  031%=      5-min Rain = 0
KAD1 111905Z 17015KT 32/13 A3013 RMK A01 T03220133  RH  032%=      5-min Rain = 0
KAD1 111906Z 18012KT 32/13 A3013 RMK A01 T03180130  RH  032%=      5-min Rain = 0
KAD1 111907Z 18014G22KT 32/13 A3013 RMK A01 T03150131  RH  033%=      5-min Rain = 0
KAD1 111908Z 17020KT 32/13 A3013 RMK A01 T03160133  RH  033%=      5-min Rain = 0
KAD1 111909Z 17015KT 32/13 A3013 RMK A01 T03180133  RH  032%=      5-min Rain = 0
KAD1 111910Z 16014KT 31/13 A3013 RMK A01 T03140131  RH  033%=      5-min Rain = 0
KAD1 111911Z 17023KT 31/13 A3013 RMK A01 T03090131  RH  034%=      5-min Rain = 0
KAD1 111912Z 17020G25KT 31/13 A3013 RMK A01 T03080130  RH  034%=      5-min Rain = 0
KAD1 111913Z 16017G22KT 31/13 A3013 RMK A01 T03070132  RH  034%=      5-min Rain = 0
KAD1 111914Z 16015KT 31/14 A3013 RMK A01 T03120137  RH  034%=      5-min Rain = 0
KAD1 111915Z 17015KT 32/13 A3013 RMK A01 T03160134  RH  033%=      5-min Rain = 0
KAD1 111916Z 19015KT 32/13 A3013 RMK A01 T03170133  RH  033%=      5-min Rain = 0
KAD1 111917Z 18018KT 32/13 A3013 RMK A01 T03200133  RH  032%=      5-min Rain = 0
KAD1 111918Z 19017KT 32/14 A3013 RMK A01 T03200135  RH  032%=      5-min Rain = 0
KAD1 111919Z 20014KT 32/13 A3012 RMK A01 T03210133  RH  032%=      5-min Rain = 0
KAD1 111920Z 18017KT 32/13 A3012 RMK A01 T03160134  RH  033%=      5-min Rain = 0
KAD1 111921Z 17019KT 31/13 A3012 RMK A01 T03140134  RH  033%=      5-min Rain = 0
KAD1 111922Z 16019G25KT 31/14 A3012 RMK A01 T03110135  RH  034%=      5-min Rain = 0
KAD1 111923Z 14017KT 31/13 A3012 RMK A01 T03050133  RH  035%=      5-min Rain = 0
KAD1 111924Z 15015KT 30/13 A3012 RMK A01 T03030134  RH  035%=      5-min Rain = 0
KAD1 111925Z 16015G23KT 30/14 A3012 RMK A01 T03040136  RH  036%=      5-min Rain = 0
KAD1 111926Z 17022KT 30/13 A3012 RMK A01 T03030134  RH  035%=      5-min Rain = 0
KAD1 111927Z 17017KT 31/13 A3012 RMK A01 T03050134  RH  035%=      5-min Rain = 0
KAD1 111928Z 19016KT 31/14 A3012 RMK A01 T03120135  RH  034%=      5-min Rain = 0
KAD1 111929Z 18014KT 31/13 A3012 RMK A01 T03140132  RH  033%=      5-min Rain = 0
KAD1 111930Z 18015KT 31/13 A3012 RMK A01 T03120134  RH  034%=      5-min Rain = 0
KAD1 111931Z 17017G22KT 31/14 A3012 RMK A01 T03130138  RH  034%=      5-min Rain = 0
KAD1 111932Z 16017G22KT 32/14 A3012 RMK A01 T03170138  RH  034%=      5-min Rain = 0
KAD1 111933Z 16016G21KT 32/14 A3012 RMK A01 T03160138  RH  034%=      5-min Rain = 0
KAD1 111934Z 18019G24KT 31/13 A3012 RMK A01 T03130134  RH  034%=      5-min Rain = 0
KAD1 111935Z 18021KT 31/13 A3012 RMK A01 T03120130  RH  033%=      5-min Rain = 0
KAD1 111936Z 18018KT 31/13 A3012 RMK A01 T03100130  RH  033%=      5-min Rain = 0
KAD1 111937Z 17015G20KT 31/13 A3012 RMK A01 T03120132  RH  033%=      5-min Rain = 0
KAD1 111938Z 19014KT 31/13 A3012 RMK A01 T03140130  RH  032%=      5-min Rain = 0
KAD1 111939Z 18015KT 31/13 A3012 RMK A01 T03130128  RH  032%=      5-min Rain = 0
KAD1 111940Z 18013KT 31/13 A3012 RMK A01 T03120129  RH  033%=      5-min Rain = 0
KAD1 111941Z 16014G19KT 31/13 A3012 RMK A01 T03120132  RH  033%=      5-min Rain = 0
KAD1 111942Z 16016G22KT 31/13 A3012 RMK A01 T03130134  RH  034%=      5-min Rain = 0
KAD1 111943Z 17014KT 31/13 A3012 RMK A01 T03120131  RH  033%=      5-min Rain = 0
KAD1 111944Z 18014KT 31/13 A3012 RMK A01 T03100128  RH  033%=      5-min Rain = 0
KAD1 111945Z 18016KT 31/13 A3011 RMK A01 T03110127  RH  032%=      5-min Rain = 0
KAD1 111946Z 17014KT 31/13 A3011 RMK A01 T03140130  RH  033%=      5-min Rain = 0
KAD1 111947Z 16016KT 32/13 A3011 RMK A01 T03150133  RH  033%=      5-min Rain = 0
KAD1 111948Z 18020G26KT 31/13 A3011 RMK A01 T03130133  RH  033%=      5-min Rain = 0
KAD1 111949Z 18022KT 32/13 A3011 RMK A01 T03170132  RH  032%=      5-min Rain = 0
KAD1 111950Z 17015KT 32/13 A3011 RMK A01 T03170131  RH  032%=      5-min Rain = 0
KAD1 111951Z 18014KT 32/13 A3011 RMK A01 T03180132  RH  032%=      5-min Rain = 0
KAD1 111952Z 19016KT 32/13 A3011 RMK A01 T03210129  RH  031%=      5-min Rain = 0
KAD1 111953Z 19020G25KT 32/13 A3011 RMK A01 T03190130  RH  032%=      5-min Rain = 0
KAD1 111954Z 19017KT 32/13 A3011 RMK A01 T03230130  RH  031%=      5-min Rain = 0
KAD1 111955Z 19018KT 33/13 A3011 RMK A01 T03250129  RH  031%=      5-min Rain = 0
KAD1 111956Z 18017KT 32/13 A3011 RMK A01 T03240131  RH  031%=      5-min Rain = 0
KAD1 111957Z 17017KT 32/13 A3011 RMK A01 T03240130  RH  031%=      5-min Rain = 0
KAD1 111958Z 16014KT 32/13 A3011 RMK A01 T03220130  RH  031%=      5-min Rain = 0
KAD1 111959Z 17014KT 32/13 A3011 RMK A01 T03200131  RH  032%=      5-min Rain = 0
KAD1 112000Z 19014KT 32/13 A3011 RMK A01 T03180130  RH  032%=      5-min Rain = 0
KAD1 112001Z 19017KT 32/13 A3011 RMK A01 T03160129  RH  032%=      5-min Rain = 0
KAD1 112002Z 17016KT 32/13 A3011 RMK A01 T03200132  RH  032%=      5-min Rain = 0
KAD1 112003Z 16020KT 32/13 A3011 RMK A01 T03200131  RH  032%=      5-min Rain = 0
KAD1 112004Z 16017KT 32/13 A3011 RMK A01 T03180130  RH  032%=      5-min Rain = 0
KAD1 112005Z 16019G25KT 32/13 A3011 RMK A01 T03170130  RH  032%=      5-min Rain = 0
KAD1 112006Z 16022KT 32/13 A3011 RMK A01 T03160128  RH  032%=      5-min Rain = 0
KAD1 112007Z 17019KT 31/13 A3011 RMK A01 T03120127  RH  032%=      5-min Rain = 0
KAD1 112008Z 17016KT 31/13 A301 RMK A01 T03090125  RH  032%=      5-min Rain = 0
KAD1 112009Z 17020G26KT 31/13 A3011 RMK A01 T03120128  RH  033%=      5-min Rain = 0
KAD1 112010Z 18019KT 32/13 A3011 RMK A01 T03180130  RH  032%=      5-min Rain = 0
KAD1 112011Z 20017G22KT 32/13 A301 RMK A01 T03210127  RH  031%=      5-min Rain = 0
KAD1 112012Z 20019KT 32/13 A301 RMK A01 T03190125  RH  031%=      5-min Rain = 0
KAD1 112013Z 19016G21KT 32/13 A301 RMK A01 T03200125  RH  031%=      5-min Rain = 0
KAD1 112014Z 19016KT 32/13 A301 RMK A01 T03200125  RH  030%=      5-min Rain = 0
KAD1 112015Z 18021G26KT 32/13 A301 RMK A01 T03200126  RH  031%=      5-min Rain = 0
KAD1 112016Z 18019KT 32/13 A301 RMK A01 T03210125  RH  030%=      5-min Rain = 0
KAD1 112017Z 19014KT 32/13 A301 RMK A01 T03210126  RH  031%=      5-min Rain = 0
KAD1 112018Z 19016KT 33/13 A301 RMK A01 T03280129  RH  030%=      5-min Rain = 0
KAD1 112019Z 19019KT 33/13 A301 RMK A01 T03280129  RH  030%=      5-min Rain = 0
KAD1 112020Z 18019G26KT 32/13 A301 RMK A01 T03240130  RH  031%=      5-min Rain = 0
KAD1 112021Z 16018KT 32/13 A301 RMK A01 T03230131  RH  031%=      5-min Rain = 0
KAD1 112022Z 18016G21KT 32/13 A301 RMK A01 T03220130  RH  031%=      5-min Rain = 0
KAD1 112023Z 19012KT 32/13 A301 RMK A01 T03190127  RH  031%=      5-min Rain = 0
KAD1 112024Z 18014G22KT 32/13 A301 RMK A01 T03210131  RH  032%=      5-min Rain = 0
KAD1 112025Z 19022G27KT 33/13 A301 RMK A01 T03300131  RH  030%=      5-min Rain = 0
KAD1 112026Z 19019KT 33/13 A301 RMK A01 T03310130  RH  030%=      5-min Rain = 0
KAD1 112027Z 19016KT 33/13 A301 RMK A01 T03320130  RH  029%=      5-min Rain = 0
KAD1 112028Z 19014KT 33/13 A301 RMK A01 T03270127  RH  030%=      5-min Rain = 0
KAD1 112029Z 20016KT 32/13 A301 RMK A01 T03220128  RH  031%=      5-min Rain = 0
KAD1 112030Z 18019KT 32/13 A301 RMK A01 T03210128  RH  031%=      5-min Rain = 0
KAD1 112031Z 18014G19KT 32/13 A301 RMK A01 T03230130  RH  031%=      5-min Rain = 0
KAD1 112032Z 18018KT 33/13 A301 RMK A01 T03270130  RH  030%=      5-min Rain = 0
KAD1 112033Z 20015KT 32/13 A301 RMK A01 T03240126  RH  030%=      5-min Rain = 0
KAD1 112034Z 21014KT 32/13 A301 RMK A01 T03220127  RH  031%=      5-min Rain = 0
KAD1 112035Z 20015KT 32/13 A301 RMK A01 T03240127  RH  030%=      5-min Rain = 0
KAD1 112036Z 17016KT 33/13 A3009 RMK A01 T03270129  RH  030%=      5-min Rain = 0
KAD1 112037Z 18017KT 33/13 A3009 RMK A01 T03270129  RH  030%=      5-min Rain = 0
KAD1 112038Z 18019G24KT 33/13 A3009 RMK A01 T03260130  RH  030%=      5-min Rain = 0
KAD1 112039Z 19021KT 33/13 A3009 RMK A01 T03280129  RH  030%=      5-min Rain = 0
KAD1 112040Z 19020KT 33/13 A3009 RMK A01 T03290128  RH  029%=      5-min Rain = 0
KAD1 112041Z 19020KT 33/13 A301 RMK A01 T03310128  RH  029%=      5-min Rain = 0
KAD1 112042Z 18014KT 33/13 A301 RMK A01 T03270128  RH  030%=      5-min Rain = 0
KAD1 112043Z 18016KT 33/13 A301 RMK A01 T03310130  RH  029%=      5-min Rain = 0
KAD1 112044Z 17021G26KT 33/13 A3009 RMK A01 T03330128  RH  029%=      5-min Rain = 0
KAD1 112045Z 19019KT 33/13 A3009 RMK A01 T03290127  RH  029%=      5-min Rain = 0
KAD1 112046Z 20017KT 33/13 A3009 RMK A01 T03300127  RH  029%=      5-min Rain = 0
KAD1 112047Z 16016KT 33/13 A3009 RMK A01 T03260127  RH  030%=      5-min Rain = 0
KAD1 112048Z 16015KT 33/13 A3009 RMK A01 T03250129  RH  030%=      5-min Rain = 0
KAD1 112049Z 17015G21KT 32/13 A3009 RMK A01 T03230129  RH  031%=      5-min Rain = 0
KAD1 112050Z 17018KT 32/13 A3009 RMK A01 T03220129  RH  031%=      5-min Rain = 0
KAD1 112051Z 17016KT 32/13 A3009 RMK A01 T03200126  RH  031%=      5-min Rain = 0
KAD1 112052Z 16020KT 32/13 A3009 RMK A01 T03170127  RH  031%=      5-min Rain = 0
KAD1 112053Z 15020G25KT 31/13 A3009 RMK A01 T03140128  RH  032%=      5-min Rain = 0
KAD1 112054Z 16021KT 31/13 A3009 RMK A01 T03140130  RH  032%=      5-min Rain = 0
KAD1 112055Z 15016G21KT 32/13 A3009 RMK A01 T03170129  RH  032%=      5-min Rain = 0
KAD1 112056Z 16017KT 32/13 A3009 RMK A01 T03190133  RH  032%=      5-min Rain = 0
KAD1 112057Z 15017KT 32/13 A3009 RMK A01 T03230132  RH  031%=      5-min Rain = 0
KAD1 112058Z 16019KT 32/13 A3009 RMK A01 T03240130  RH  031%=      5-min Rain = 0
KAD1 112059Z 16015KT 32/13 A3009 RMK A01 T03170128  RH  032%=      5-min Rain = 0
KAD1 112100Z 17016KT 32/13 A3009 RMK A01 T03180131  RH  032%=      5-min Rain = 0
KAD1 112101Z 16017KT 32/13 A3009 RMK A01 T03230129  RH  031%=      5-min Rain = 0
KAD1 112102Z 17020KT 32/13 A3009 RMK A01 T03220130  RH  031%=      5-min Rain = 0
KAD1 112103Z 18016G22KT 33/13 A3009 RMK A01 T03260126  RH  030%=      5-min Rain = 0
KAD1 112104Z 18017G23KT 33/13 A3009 RMK A01 T03270125  RH  029%=      5-min Rain = 0
KAD1 112105Z 18013G19KT 33/13 A3009 RMK A01 T03260125  RH  030%=      5-min Rain = 0
KAD1 112106Z 18017KT 33/13 A3009 RMK A01 T03320129  RH  029%=      5-min Rain = 0
KAD1 112107Z 20016KT 33/12 A3009 RMK A01 T03320124  RH  028%=      5-min Rain = 0
KAD1 112108Z 19015KT 33/13 A3009 RMK A01 T03290125  RH  029%=      5-min Rain = 0
KAD1 112109Z 20017KT 33/12 A3008 RMK A01 T03320124  RH  028%=      5-min Rain = 0
KAD1 112110Z 19017KT 34/12 A3008 RMK A01 T03360123  RH  027%=      5-min Rain = 0
KAD1 112111Z 19014KT 33/12 A3008 RMK A01 T03310120  RH  028%=      5-min Rain = 0
KAD1 112112Z 18018G23KT 33/12 A3008 RMK A01 T03260120  RH  028%=      5-min Rain = 0
KAD1 112113Z 18022KT 33/12 A3008 RMK A01 T03270124  RH  029%=      5-min Rain = 0
KAD1 112114Z 19018KT 33/12 A3009 RMK A01 T03300122  RH  028%=      5-min Rain = 0
KAD1 112115Z 20018G23KT 33/12 A3008 RMK A01 T03290123  RH  028%=      5-min Rain = 0
KAD1 112116Z 18013G20KT 33/12 A3009 RMK A01 T03260122  RH  029%=      5-min Rain = 0
KAD1 112117Z 19019KT 33/12 A3008 RMK A01 T03250124  RH  029%=      5-min Rain = 0
KAD1 112118Z 19018KT 33/13 A3008 RMK A01 T03300125  RH  029%=      5-min Rain = 0
KAD1 112119Z 19018KT 33/13 A3008 RMK A01 T03310125  RH  029%=      5-min Rain = 0
KAD1 112120Z 20015KT 33/13 A3008 RMK A01 T03300125  RH  029%=      5-min Rain = 0
KAD1 112121Z 21015G20KT 33/12 A3008 RMK A01 T03280124  RH  029%=      5-min Rain = 0
KAD1 112122Z 18018KT 33/13 A3008 RMK A01 T03280127  RH  029%=      5-min Rain = 0
KAD1 112123Z 17016G25KT 33/13 A3008 RMK A01 T03270127  RH  030%=      5-min Rain = 0
KAD1 112124Z 19024G29KT 33/13 A3008 RMK A01 T03310128  RH  029%=      5-min Rain = 0
KAD1 112125Z 19024KT 33/13 A3008 RMK A01 T03320125  RH  029%=      5-min Rain = 0
KAD1 112126Z 19018KT 33/13 A3008 RMK A01 T03290125  RH  029%=      5-min Rain = 0
KAD1 112127Z 18021KT 33/13 A3008 RMK A01 T03290125  RH  029%=      5-min Rain = 0
KAD1 112128Z 18021KT 33/13 A3008 RMK A01 T03300126  RH  029%=      5-min Rain = 0
KAD1 112129Z 18018G23KT 33/13 A3008 RMK A01 T03320127  RH  029%=      5-min Rain = 0
KAD1 112130Z 17018KT 33/13 A3008 RMK A01 T03330125  RH  028%=      5-min Rain = 0
KAD1 112131Z 17019KT 33/13 A3008 RMK A01 T03280126  RH  029%=      5-min Rain = 0
KAD1 112132Z 18015KT 33/13 A3008 RMK A01 T03270127  RH  030%=      5-min Rain = 0
KAD1 112133Z 17019KT 33/13 A3008 RMK A01 T03280125  RH  029%=      5-min Rain = 0
KAD1 112134Z 17015KT 32/12 A3008 RMK A01 T03240123  RH  029%=      5-min Rain = 0
KAD1 112135Z 17018KT 32/13 A3008 RMK A01 T03210125  RH  030%=      5-min Rain = 0
KAD1 112136Z 16018KT 32/13 A3008 RMK A01 T03210127  RH  031%=      5-min Rain = 0
KAD1 112137Z 18018KT 32/13 A3008 RMK A01 T03230129  RH  031%=      5-min Rain = 0
KAD1 112138Z 18018KT 33/13 A3008 RMK A01 T03270127  RH  030%=      5-min Rain = 0
KAD1 112139Z 18020KT 33/13 A3008 RMK A01 T03280127  RH  029%=      5-min Rain = 0
KAD1 112140Z 18017KT 33/13 A3007 RMK A01 T03290125  RH  029%=      5-min Rain = 0
KAD1 112141Z 19015KT 33/13 A3008 RMK A01 T03280125  RH  029%=      5-min Rain = 0
KAD1 112142Z 19013KT 33/13 A3008 RMK A01 T03270125  RH  029%=      5-min Rain = 0
KAD1 112143Z 18013KT 33/12 A3007 RMK A01 T03260124  RH  029%=      5-min Rain = 0
KAD1 112144Z 18015KT 33/12 A3007 RMK A01 T03250124  RH  029%=      5-min Rain = 0
KAD1 112145Z 16017G25KT 32/13 A3007 RMK A01 T03230125  RH  030%=      5-min Rain = 0
KAD1 112146Z 18019KT 33/13 A3007 RMK A01 T03250128  RH  030%=      5-min Rain = 0
KAD1 112147Z 18020KT 33/13 A3007 RMK A01 T03310129  RH  029%=      5-min Rain = 0
KAD1 112148Z 17017KT 33/13 A3007 RMK A01 T03330126  RH  029%=      5-min Rain = 0
KAD1 112149Z 18017KT 33/12 A3007 RMK A01 T03270124  RH  029%=      5-min Rain = 0
KAD1 112150Z 18018KT 33/12 A3007 RMK A01 T03250123  RH  029%=      5-min Rain = 0
KAD1 112151Z 17015KT 33/12 A3007 RMK A01 T03250123  RH  029%=      5-min Rain = 0
KAD1 112152Z 17016KT 33/13 A3007 RMK A01 T03250125  RH  030%=      5-min Rain = 0
KAD1 112153Z 18017G22KT 33/12 A3007 RMK A01 T03250123  RH  029%=      5-min Rain = 0
KAD1 112154Z 18018G23KT 33/12 A3007 RMK A01 T03260124  RH  029%=      5-min Rain = 0
KAD1 112155Z 18020G26KT 33/13 A3007 RMK A01 T03270125  RH  029%=      5-min Rain = 0
KAD1 112156Z 18018KT 33/13 A3007 RMK A01 T03270125  RH  029%=      5-min Rain = 0
KAD1 112157Z 18020KT 33/13 A3007 RMK A01 T03270125  RH  029%=      5-min Rain = 0
KAD1 112158Z 18020G25KT 33/13 A3007 RMK A01 T03280125  RH  029%=      5-min Rain = 0
KAD1 112159Z 18022KT 33/12 A3007 RMK A01 T03260123  RH  029%=      5-min Rain = 0
KAD1 112200Z 18019KT 32/12 A3007 RMK A01 T03220121  RH  029%=      5-min Rain = 0
KAD1 112201Z 17014KT 32/12 A3007 RMK A01 T03180121  RH  030%=      5-min Rain = 0
KAD1 112202Z 18015KT 32/12 A3007 RMK A01 T03150122  RH  031%=      5-min Rain = 0
KAD1 112203Z 18017KT 32/13 A3006 RMK A01 T03170125  RH  031%=      5-min Rain = 0
KAD1 112204Z 17018KT 33/13 A3007 RMK A01 T03260129  RH  030%=      5-min Rain = 0
KAD1 112205Z 19018KT 33/13 A3007 RMK A01 T03290128  RH  029%=      5-min Rain = 0
KAD1 112206Z 20018KT 33/13 A3007 RMK A01 T03320127  RH  029%=      5-min Rain = 0
KAD1 112207Z 21015KT 33/13 A3007 RMK A01 T03320126  RH  029%=      5-min Rain = 0
KAD1 112208Z 18019KT 33/13 A3007 RMK A01 T03330127  RH  029%=      5-min Rain = 0
KAD1 112209Z 17020KT 33/13 A3007 RMK A01 T03320126  RH  029%=      5-min Rain = 0
KAD1 112210Z 19018KT 33/13 A3007 RMK A01 T03320127  RH  029%=      5-min Rain = 0
KAD1 112211Z 19020KT 33/13 A3006 RMK A01 T03320127  RH  029%=      5-min Rain = 0
KAD1 112212Z 18016KT 33/13 A3006 RMK A01 T03330128  RH  029%=      5-min Rain = 0
KAD1 112213Z 19021KT 34/13 A3006 RMK A01 T03360128  RH  028%=      5-min Rain = 0
KAD1 112214Z 19019KT 34/13 A3006 RMK A01 T03350126  RH  028%=      5-min Rain = 0
KAD1 112215Z 18016KT 33/13 A3006 RMK A01 T03340126  RH  028%=      5-min Rain = 0
KAD1 112216Z 18013KT 33/13 A3006 RMK A01 T03310125  RH  029%=      5-min Rain = 0
KAD1 112217Z 19018KT 33/13 A3006 RMK A01 T03310126  RH  029%=      5-min Rain = 0
KAD1 112218Z 19023KT 33/13 A3006 RMK A01 T03290125  RH  029%=      5-min Rain = 0
KAD1 112219Z 18023KT 33/12 A3006 RMK A01 T03250124  RH  030%=      5-min Rain = 0
KAD1 112220Z 18023KT 32/13 A3006 RMK A01 T03220126  RH  030%=      5-min Rain = 0
KAD1 112221Z 18022G27KT 33/13 A3006 RMK A01 T03270129  RH  030%=      5-min Rain = 0
KAD1 112222Z 18017KT 33/13 A3006 RMK A01 T03310128  RH  029%=      5-min Rain = 0
KAD1 112223Z 18016KT 33/13 A3006 RMK A01 T03310127  RH  029%=      5-min Rain = 0
KAD1 112224Z 17017G22KT 33/13 A3006 RMK A01 T03310127  RH  029%=      5-min Rain = 0
KAD1 112225Z 17015KT 33/13 A3006 RMK A01 T03290127  RH  029%=      5-min Rain = 0
KAD1 112226Z 17013KT 33/13 A3006 RMK A01 T03300128  RH  029%=      5-min Rain = 0
KAD1 112227Z 17013KT 33/13 A3006 RMK A01 T03300126  RH  029%=      5-min Rain = 0
KAD1 112228Z 17016KT 33/13 A3006 RMK A01 T03300129  RH  029%=      5-min Rain = 0
KAD1 112229Z 18018KT 33/13 A3006 RMK A01 T03320126  RH  029%=      5-min Rain = 0
KAD1 112230Z 18014KT 33/13 A3006 RMK A01 T03280126  RH  029%=      5-min Rain = 0
KAD1 112231Z 19021KT 33/13 A3006 RMK A01 T03270126  RH  030%=      5-min Rain = 0
KAD1 112232Z 20020G25KT 33/13 A3006 RMK A01 T03280126  RH  029%=      5-min Rain = 0
KAD1 112233Z 19013KT 33/13 A3006 RMK A01 T03260125  RH  030%=      5-min Rain = 0
KAD1 112234Z 20018KT 33/13 A3006 RMK A01 T03290128  RH  030%=      5-min Rain = 0
KAD1 112235Z 17017KT 34/13 A3006 RMK A01 T03350130  RH  029%=      5-min Rain = 0
KAD1 112236Z 19017KT 34/13 A3006 RMK A01 T03390128  RH  028%=      5-min Rain = 0
KAD1 112237Z 19017KT 33/13 A3006 RMK A01 T03340125  RH  028%=      5-min Rain = 0
KAD1 112238Z 18017KT 33/13 A3006 RMK A01 T03310126  RH  029%=      5-min Rain = 0
KAD1 112239Z 19016KT 33/13 A3006 RMK A01 T03280126  RH  029%=      5-min Rain = 0
KAD1 112240Z 17016KT 33/13 A3006 RMK A01 T03250127  RH  030%=      5-min Rain = 0
KAD1 112241Z 17015KT 33/13 A3006 RMK A01 T03250127  RH  030%=      5-min Rain = 0
KAD1 112242Z 19019KT 33/13 A3006 RMK A01 T03290126  RH  029%=      5-min Rain = 0
KAD1 112243Z 18016KT 33/12 A3006 RMK A01 T03300124  RH  029%=      5-min Rain = 0
KAD1 112244Z 18017KT 33/13 A3006 RMK A01 T03290126  RH  029%=      5-min Rain = 0
KAD1 112245Z 20016KT 33/13 A3006 RMK A01 T03300127  RH  029%=      5-min Rain = 0
KAD1 112246Z 19016KT 33/13 A3006 RMK A01 T03290128  RH  030%=      5-min Rain = 0
KAD1 112247Z 20021KT 33/13 A3006 RMK A01 T03250127  RH  030%=      5-min Rain = 0
KAD1 112248Z 18019KT 32/13 A3006 RMK A01 T03190126  RH  031%=      5-min Rain = 0
KAD1 112249Z 19018KT 32/13 A3006 RMK A01 T03180125  RH  031%=      5-min Rain = 0
KAD1 112250Z 18018KT 32/13 A3006 RMK A01 T03170125  RH  031%=      5-min Rain = 0
KAD1 112251Z 18021KT 32/13 A3006 RMK A01 T03160126  RH  031%=      5-min Rain = 0
KAD1 112252Z 18021KT 32/13 A3006 RMK A01 T03160127  RH  031%=      5-min Rain = 0
KAD1 112253Z 18016KT 32/13 A3006 RMK A01 T03190128  RH  031%=      5-min Rain = 0
KAD1 112254Z 18017KT 32/13 A3006 RMK A01 T03240128  RH  030%=      5-min Rain = 0
KAD1 112255Z 19019KT 32/13 A3006 RMK A01 T03240127  RH  030%=      5-min Rain = 0
KAD1 112256Z 19017KT 32/13 A3006 RMK A01 T03230126  RH  030%=      5-min Rain = 0
KAD1 112257Z 18017KT 33/13 A3006 RMK A01 T03250127  RH  030%=      5-min Rain = 0
KAD1 112258Z 19017KT 33/13 A3006 RMK A01 T03260127  RH  030%=      5-min Rain = 0
KAD1 112259Z 19016G22KT 32/13 A3006 RMK A01 T03240125  RH  030%=      5-min Rain = 0
KAD1 112300Z 19018G23KT 32/13 A3006 RMK A01 T03200126  RH  031%=      5-min Rain = 0
KAD1 112301Z 19017KT 32/13 A3006 RMK A01 T03170126  RH  031%=      5-min Rain = 0
KAD1 112302Z 19013KT 32/13 A3006 RMK A01 T03150125  RH  031%=      5-min Rain = 0
KAD1 112303Z 19014KT 31/13 A3006 RMK A01 T03130125  RH  032%=      5-min Rain = 0
KAD1 112304Z 18015G22KT 31/13 A3006 RMK A01 T03120125  RH  032%=      5-min Rain = 0
KAD1 112305Z 19019KT 31/13 A3006 RMK A01 T03110126  RH  032%=      5-min Rain = 0
KAD1 112306Z 19019KT 31/13 A3006 RMK A01 T03120126  RH  032%=      5-min Rain = 0
KAD1 112307Z 18020KT 32/13 A3006 RMK A01 T03150126  RH  032%=      5-min Rain = 0
KAD1 112308Z 18016KT 32/13 A3006 RMK A01 T03170126  RH  031%=      5-min Rain = 0
KAD1 112309Z 18017KT 32/13 A3006 RMK A01 T03180127  RH  031%=      5-min Rain = 0
KAD1 112310Z 18016KT 32/13 A3006 RMK A01 T03160126  RH  031%=      5-min Rain = 0
KAD1 112311Z 18015KT 32/13 A3006 RMK A01 T03150126  RH  031%=      5-min Rain = 0
KAD1 112312Z 18016KT 31/13 A3006 RMK A01 T03140126  RH  032%=      5-min Rain = 0
KAD1 112313Z 18014KT 31/13 A3007 RMK A01 T03130126  RH  032%=      5-min Rain = 0
KAD1 112314Z 18016KT 31/13 A3007 RMK A01 T03140125  RH  031%=      5-min Rain = 0
KAD1 112315Z 18014KT 31/13 A3007 RMK A01 T03140126  RH  032%=      5-min Rain = 0
KAD1 112316Z 18015KT 31/13 A3007 RMK A01 T03130126  RH  032%=      5-min Rain = 0
KAD1 112317Z 19015KT 31/13 A3007 RMK A01 T03120126  RH  032%=      5-min Rain = 0
KAD1 112318Z 19014KT 31/13 A3007 RMK A01 T03120127  RH  032%=      5-min Rain = 0
KAD1 112319Z 20015KT 31/13 A3007 RMK A01 T03100126  RH  032%=      5-min Rain = 0
KAD1 112320Z 19013KT 31/13 A3007 RMK A01 T03090126  RH  033%=      5-min Rain = 0
KAD1 112321Z 18013KT 31/13 A3007 RMK A01 T03090127  RH  033%=      5-min Rain = 0
KAD1 112322Z 19013KT 31/13 A3007 RMK A01 T03110127  RH  032%=      5-min Rain = 0
KAD1 112323Z 19015KT 31/13 A3007 RMK A01 T03120128  RH  033%=      5-min Rain = 0
KAD1 112324Z 19018KT 31/13 A3007 RMK A01 T03120128  RH  033%=      5-min Rain = 0
KAD1 112325Z 19018KT 31/13 A3007 RMK A01 T03140128  RH  032%=      5-min Rain = 0
KAD1 112326Z 18017KT 32/13 A3007 RMK A01 T03150129  RH  032%=      5-min Rain = 0
KAD1 112327Z 19018KT 32/13 A3007 RMK A01 T03150130  RH  032%=      5-min Rain = 0
KAD1 112328Z 19017KT 32/13 A3007 RMK A01 T03160130  RH  032%=      5-min Rain = 0
KAD1 112329Z 18016KT 32/13 A3007 RMK A01 T03190130  RH  032%=      5-min Rain = 0
KAD1 112330Z 17019KT 32/13 A3007 RMK A01 T03210130  RH  031%=      5-min Rain = 0
KAD1 112331Z 17018KT 32/13 A3007 RMK A01 T03210130  RH  031%=      5-min Rain = 0
KAD1 112332Z 17018KT 32/13 A3007 RMK A01 T03210130  RH  031%=      5-min Rain = 0
KAD1 112333Z 17021KT 32/13 A3007 RMK A01 T03210130  RH  031%=      5-min Rain = 0
KAD1 112334Z 17015G20KT 32/13 A3007 RMK A01 T03200129  RH  031%=      5-min Rain = 0
KAD1 112335Z 18019KT 32/13 A3007 RMK A01 T03160129  RH  032%=      5-min Rain = 0
KAD1 112336Z 18017KT 32/13 A3007 RMK A01 T03170130  RH  032%=      5-min Rain = 0
KAD1 112337Z 19016KT 32/13 A3007 RMK A01 T03200131  RH  032%=      5-min Rain = 0
KAD1 112338Z 18015G20KT 32/13 A3007 RMK A01 T03210131  RH  031%=      5-min Rain = 0
KAD1 112339Z 18019KT 32/13 A3007 RMK A01 T03230131  RH  031%=      5-min Rain = 0
KAD1 112340Z 17019KT 32/13 A3007 RMK A01 T03220129  RH  031%=      5-min Rain = 0
KAD1 112341Z 17016KT 32/13 A3007 RMK A01 T03210129  RH  031%=      5-min Rain = 0
KAD1 112342Z 18015KT 32/13 A3007 RMK A01 T03200129  RH  031%=      5-min Rain = 0
KAD1 112343Z 19015KT 32/13 A3007 RMK A01 T03210128  RH  031%=      5-min Rain = 0
KAD1 112344Z 19016KT 32/13 A3007 RMK A01 T03200128  RH  031%=      5-min Rain = 0
KAD1 112345Z 19017KT 32/13 A3007 RMK A01 T03180126  RH  031%=      5-min Rain = 0
KAD1 112346Z 18015KT 32/13 A3007 RMK A01 T03160126  RH  031%=      5-min Rain = 0
KAD1 112347Z 18014KT 31/13 A3007 RMK A01 T03140127  RH  032%=      5-min Rain = 0
KAD1 112348Z 17017KT 32/13 A3007 RMK A01 T03150128  RH  032%=      5-min Rain = 0
KAD1 112349Z 17016KT 32/13 A3007 RMK A01 T03150129  RH  032%=      5-min Rain = 0
KAD1 112350Z 17016KT 32/13 A3007 RMK A01 T03160129  RH  032%=      5-min Rain = 0
KAD1 112351Z 18014KT 32/13 A3007 RMK A01 T03160129  RH  032%=      5-min Rain = 0
KAD1 112352Z 17015KT 32/13 A3007 RMK A01 T03160130  RH  032%=      5-min Rain = 0
KAD1 112353Z 18016KT 32/13 A3007 RMK A01 T03160130  RH  032%=      5-min Rain = 0
KAD1 112354Z 17017KT 31/13 A3007 RMK A01 T03140130  RH  032%=      5-min Rain = 0
KAD1 112355Z 18016G21KT 31/13 A3007 RMK A01 T03140131  RH  033%=      5-min Rain = 0
KAD1 112356Z 18018KT 31/13 A3007 RMK A01 T03140130  RH  032%=      5-min Rain = 0
KAD1 112357Z 20017KT 31/13 A3007 RMK A01 T03140128  RH  032%=      5-min Rain = 0
KAD1 112358Z 19016KT 31/13 A3007 RMK A01 T03130129  RH  033%=      5-min Rain = 0
KAD1 112359Z 19016KT 31/13 A3007 RMK A01 T03130130  RH  033%=      5-min Rain = 0
KAD1 120000Z 18015KT 31/13 A3007 RMK A01 T03140129  RH  032%=      5-min Rain = 0
KAD1 120001Z 18017KT 31/13 A3007 RMK A01 T03140129  RH  032%=      5-min Rain = 0
KAD1 120002Z 18017KT 31/13 A3007 RMK A01 T03140128  RH  032%=      5-min Rain = 0
KAD1 120003Z 19018KT 31/13 A3007 RMK A01 T03130128  RH  032%=      5-min Rain = 0
KAD1 120004Z 18019KT 31/13 A3006 RMK A01 T03120129  RH  033%=      5-min Rain = 0
KAD1 120005Z 17022KT 31/13 A3007 RMK A01 T03120130  RH  033%=      5-min Rain = 0
KAD1 120006Z 17019KT 31/13 A3006 RMK A01 T03120131  RH  033%=      5-min Rain = 0
KAD1 120007Z 16019KT 31/13 A3007 RMK A01 T03120134  RH  034%=      5-min Rain = 0
KAD1 120008Z 17018KT 31/13 A3007 RMK A01 T03120133  RH  034%=      5-min Rain = 0
KAD1 120009Z 17018KT 31/13 A3007 RMK A01 T03120133  RH  034%=      5-min Rain = 0
KAD1 120010Z 16021KT 31/13 A3007 RMK A01 T03120132  RH  033%=      5-min Rain = 0
KAD1 120011Z 17019KT 31/13 A3007 RMK A01 T03110132  RH  034%=      5-min Rain = 0
KAD1 120012Z 17018KT 31/13 A3007 RMK A01 T03090132  RH  034%=      5-min Rain = 0
KAD1 120013Z 16018KT 31/13 A3007 RMK A01 T03080132  RH  034%=      5-min Rain = 0
KAD1 120014Z 16018KT 31/13 A3007 RMK A01 T03070131  RH  034%=      5-min Rain = 0
KAD1 120015Z 16017KT 31/13 A3007 RMK A01 T03060131  RH  034%=      5-min Rain = 0
KAD1 120016Z 17016KT 31/13 A3007 RMK A01 T03050131  RH  035%=      5-min Rain = 0
KAD1 120017Z 16016KT 31/13 A3007 RMK A01 T03050131  RH  035%=      5-min Rain = 0
KAD1 120018Z 16017KT 31/13 A3007 RMK A01 T03050131  RH  034%=      5-min Rain = 0
KAD1 120019Z 17018KT 31/13 A3007 RMK A01 T03060131  RH  034%=      5-min Rain = 0
KAD1 120020Z 17016KT 31/13 A3007 RMK A01 T03080131  RH  034%=      5-min Rain = 0
KAD1 120021Z 17016G21KT 31/13 A3007 RMK A01 T03100132  RH  034%=      5-min Rain = 0
KAD1 120022Z 16018KT 31/13 A3007 RMK A01 T03110131  RH  033%=      5-min Rain = 0
KAD1 120023Z 16015KT 31/13 A3007 RMK A01 T03110132  RH  034%=      5-min Rain = 0
KAD1 120024Z 16020KT 31/13 A3007 RMK A01 T03100132  RH  034%=      5-min Rain = 0
KAD1 120025Z 16019KT 31/13 A3007 RMK A01 T03100132  RH  034%=      5-min Rain = 0
KAD1 120026Z 16018KT 31/13 A3007 RMK A01 T03100133  RH  034%=      5-min Rain = 0
KAD1 120027Z 17018KT 31/13 A3006 RMK A01 T03100132  RH  034%=      5-min Rain = 0
KAD1 120028Z 16018KT 31/13 A3006 RMK A01 T03100133  RH  034%=      5-min Rain = 0
KAD1 120029Z 17017KT 31/13 A3006 RMK A01 T03100133  RH  034%=      5-min Rain = 0
KAD1 120030Z 16015KT 31/13 A3006 RMK A01 T03110133  RH  034%=      5-min Rain = 0
KAD1 120031Z 16019KT 31/13 A3006 RMK A01 T03120134  RH  034%=      5-min Rain = 0
KAD1 120032Z 16018G23KT 31/13 A3006 RMK A01 T03120133  RH  034%=      5-min Rain = 0
KAD1 120033Z 16020KT 31/13 A3006 RMK A01 T03110133  RH  034%=      5-min Rain = 0
KAD1 120034Z 17020KT 31/13 A3006 RMK A01 T03100133  RH  034%=      5-min Rain = 0
KAD1 120035Z 17018KT 31/13 A3006 RMK A01 T03100132  RH  034%=      5-min Rain = 0
KAD1 120036Z 17019KT 31/13 A3006 RMK A01 T03100132  RH  034%=      5-min Rain = 0
KAD1 120037Z 18019KT 31/13 A3006 RMK A01 T03100132  RH  034%=      5-min Rain = 0
KAD1 120038Z 17019KT 31/13 A3006 RMK A01 T03090132  RH  034%=      5-min Rain = 0
KAD1 120039Z 17018KT 31/13 A3006 RMK A01 T03090133  RH  034%=      5-min Rain = 0
KAD1 120040Z 16020KT 31/13 A3006 RMK A01 T03080133  RH  034%=      5-min Rain = 0
KAD1 120041Z 16019KT 31/13 A3006 RMK A01 T03070132  RH  034%=      5-min Rain = 0
KAD1 120042Z 17019KT 31/13 A3006 RMK A01 T03060132  RH  035%=      5-min Rain = 0
KAD1 120043Z 16018KT 31/13 A3006 RMK A01 T03060132  RH  035%=      5-min Rain = 0
KAD1 120044Z 16019KT 31/13 A3006 RMK A01 T03050133  RH  035%=      5-min Rain = 0
KAD1 120045Z 17018KT 30/13 A3006 RMK A01 T03040133  RH  035%=      5-min Rain = 0
KAD1 120046Z 17019KT 30/13 A3006 RMK A01 T03040133  RH  035%=      5-min Rain = 0
KAD1 120047Z 17020KT 30/13 A3006 RMK A01 T03030132  RH  035%=      5-min Rain = 0
KAD1 120048Z 17018KT 30/13 A3006 RMK A01 T03030131  RH  035%=      5-min Rain = 0
KAD1 120049Z 17018KT 30/13 A3006 RMK A01 T03020132  RH  035%=      5-min Rain = 0
KAD1 120050Z 17018KT 30/13 A3006 RMK A01 T03010132  RH  035%=      5-min Rain = 0
KAD1 120051Z 17019KT 30/13 A3006 RMK A01 T03010132  RH  036%=      5-min Rain = 0
KAD1 120052Z 16019KT 30/13 A3006 RMK A01 T03000132  RH  036%=      5-min Rain = 0
KAD1 120053Z 16018KT 30/13 A3006 RMK A01 T02990132  RH  036%=      5-min Rain = 0
KAD1 120054Z 16017KT 30/13 A3006 RMK A01 T02990132  RH  036%=      5-min Rain = 0
KAD1 120055Z 16017KT 30/13 A3007 RMK A01 T02980132  RH  036%=      5-min Rain = 0
KAD1 120056Z 16017KT 30/13 A3007 RMK A01 T02980133  RH  036%=      5-min Rain = 0
KAD1 120057Z 16018KT 30/13 A3007 RMK A01 T02970133  RH  037%=      5-min Rain = 0
KAD1 120058Z 16016KT 30/13 A3007 RMK A01 T02970133  RH  037%=      5-min Rain = 0
KAD1 120059Z 16015KT 30/13 A3007 RMK A01 T02970133  RH  037%=      5-min Rain = 0
KAD1 120100Z 16015KT 30/13 A3007 RMK A01 T02960132  RH  037%=      5-min Rain = 0
KAD1 120101Z 16016KT 30/13 A3007 RMK A01 T02960133  RH  037%=      5-min Rain = 0
KAD1 120102Z 17015KT 30/13 A3007 RMK A01 T02960132  RH  037%=      5-min Rain = 0
KAD1 120103Z 17016KT 30/13 A3007 RMK A01 T02960132  RH  037%=      5-min Rain = 0
KAD1 120104Z 17014KT 30/13 A3007 RMK A01 T02960132  RH  037%=      5-min Rain = 0
KAD1 120105Z 17014KT 30/13 A3007 RMK A01 T02950132  RH  037%=      5-min Rain = 0
KAD1 120106Z 17013KT 30/13 A3007 RMK A01 T02950132  RH  037%=      5-min Rain = 0
KAD1 120107Z 17015KT 30/13 A3008 RMK A01 T02950132  RH  037%=      5-min Rain = 0
KAD1 120108Z 17014KT 30/13 A3008 RMK A01 T02950132  RH  037%=      5-min Rain = 0
KAD1 120109Z 17015KT 29/13 A3008 RMK A01 T02940131  RH  037%=      5-min Rain = 0
KAD1 120110Z 17016KT 29/13 A3008 RMK A01 T02940131  RH  037%=      5-min Rain = 0
KAD1 120111Z 16015KT 29/13 A3008 RMK A01 T02940131  RH  037%=      5-min Rain = 0
KAD1 120112Z 16017KT 29/13 A3008 RMK A01 T02940131  RH  037%=      5-min Rain = 0
KAD1 120113Z 17016KT 29/13 A3008 RMK A01 T02940131  RH  037%=      5-min Rain = 0
KAD1 120114Z 17016KT 29/13 A3008 RMK A01 T02940131  RH  037%=      5-min Rain = 0
KAD1 120115Z 17014KT 29/13 A3008 RMK A01 T02940131  RH  037%=      5-min Rain = 0
KAD1 120116Z 17016KT 29/13 A3008 RMK A01 T02940131  RH  037%=      5-min Rain = 0
KAD1 120117Z 17015KT 29/13 A3008 RMK A01 T02940131  RH  037%=      5-min Rain = 0
KAD1 120118Z 17014KT 29/13 A3008 RMK A01 T02940131  RH  037%=      5-min Rain = 0
KAD1 120119Z 17015KT 29/13 A3008 RMK A01 T02930131  RH  037%=      5-min Rain = 0
KAD1 120120Z 17012KT 29/13 A3008 RMK A01 T02930131  RH  037%=      5-min Rain = 0
KAD1 120121Z 17014KT 29/13 A3008 RMK A01 T02930131  RH  037%=      5-min Rain = 0
KAD1 120122Z 17013KT 29/13 A3008 RMK A01 T02920131  RH  037%=      5-min Rain = 0
KAD1 120123Z 17017KT 29/13 A3008 RMK A01 T02910131  RH  037%=      5-min Rain = 0
KAD1 120124Z 18015KT 29/13 A3008 RMK A01 T02920131  RH  037%=      5-min Rain = 0
KAD1 120125Z 17013KT 29/13 A3009 RMK A01 T02920130  RH  037%=      5-min Rain = 0
KAD1 120126Z 18013KT 29/13 A3009 RMK A01 T02920131  RH  037%=      5-min Rain = 0
KAD1 120127Z 17013KT 29/13 A3009 RMK A01 T02910131  RH  037%=      5-min Rain = 0
KAD1 120128Z 17011KT 29/13 A3009 RMK A01 T02910131  RH  037%=      5-min Rain = 0
KAD1 120129Z 17012KT 29/13 A3009 RMK A01 T02900131  RH  038%=      5-min Rain = 0
KAD1 120130Z 18011KT 29/13 A3009 RMK A01 T02900132  RH  038%=      5-min Rain = 0
KAD1 120131Z 18013KT 29/13 A3009 RMK A01 T02900132  RH  038%=      5-min Rain = 0
KAD1 120132Z 18012KT 29/13 A3009 RMK A01 T02900132  RH  038%=      5-min Rain = 0
KAD1 120133Z 18011KT 29/13 A3009 RMK A01 T02900133  RH  038%=      5-min Rain = 0
KAD1 120134Z 18010KT 29/13 A3009 RMK A01 T02900133  RH  038%=      5-min Rain = 0
KAD1 120135Z 18010KT 29/13 A3009 RMK A01 T02890133  RH  038%=      5-min Rain = 0
KAD1 120136Z 19009KT 29/13 A301 RMK A01 T02890133  RH  038%=      5-min Rain = 0
KAD1 120137Z 20009KT 29/13 A301 RMK A01 T02890133  RH  038%=      5-min Rain = 0
KAD1 120138Z 22006KT 29/13 A301 RMK A01 T02890134  RH  038%=      5-min Rain = 0
KAD1 120139Z 28006KT 29/13 A3011 RMK A01 T02890134  RH  039%=      5-min Rain = 0
KAD1 120140Z 32010KT 29/13 A3011 RMK A01 T02880134  RH  039%=      5-min Rain = 0
KAD1 120141Z 30011G18KT 28/13 A3011 RMK A01 T02810133  RH  040%=      5-min Rain = 0
KAD1 120142Z 30012KT 27/13 A3011 RMK A01 T02720133  RH  042%=      5-min Rain = 0
KAD1 120143Z 31016KT 27/13 A3011 RMK A01 T02650133  RH  044%=      5-min Rain = 0
KAD1 120144Z 32014KT 26/13 A3011 RMK A01 T02610134  RH  045%=      5-min Rain = 0
KAD1 120145Z 30014KT 26/14 A3011 RMK A01 T02590135  RH  046%=      5-min Rain = 0
KAD1 120146Z 31015KT 26/14 A3011 RMK A01 T02580135  RH  047%=      5-min Rain = 0
KAD1 120147Z 30015G21KT 26/14 A3011 RMK A01 T02560136  RH  047%=      5-min Rain = 0
KAD1 120148Z 30010KT 25/14 A3011 RMK A01 T02540136  RH  048%=      5-min Rain = 0
KAD1 120149Z 30009KT 25/14 A3011 RMK A01 T02540136  RH  048%=      5-min Rain = 0
KAD1 120150Z 31008KT 25/14 A3011 RMK A01 T02540137  RH  048%=      5-min Rain = 0
KAD1 120151Z 30010KT 25/14 A3011 RMK A01 T02540136  RH  048%=      5-min Rain = 0
KAD1 120152Z 31011KT 25/14 A3011 RMK A01 T02540136  RH  048%=      5-min Rain = 0
KAD1 120153Z 31009KT 25/14 A3011 RMK A01 T02540137  RH  048%=      5-min Rain = 0
KAD1 120154Z 31007KT 25/14 A3011 RMK A01 T02530137  RH  048%=      5-min Rain = 0
KAD1 120155Z 31009KT 25/14 A3011 RMK A01 T02530136  RH  048%=      5-min Rain = 0
KAD1 120156Z 30009KT 25/14 A3012 RMK A01 T02530136  RH  048%=      5-min Rain = 0
KAD1 120157Z 30007KT 25/14 A3012 RMK A01 T02530137  RH  048%=      5-min Rain = 0
KAD1 120158Z 31008G13KT 25/14 A3012 RMK A01 T02530137  RH  049%=      5-min Rain = 0
KAD1 120159Z 30006KT 25/14 A3012 RMK A01 T02520138  RH  049%=      5-min Rain = 0
KAD1 120200Z 28006KT 25/14 A3012 RMK A01 T02520137  RH  049%=      5-min Rain = 0
KAD1 120201Z 28009KT 25/14 A3012 RMK A01 T02520138  RH  049%=      5-min Rain = 0
KAD1 120202Z 28008KT 25/14 A3012 RMK A01 T02520138  RH  049%=      5-min Rain = 0
KAD1 120203Z 28007KT 25/14 A3013 RMK A01 T02520139  RH  049%=      5-min Rain = 0
KAD1 120204Z 27006KT 25/14 A3013 RMK A01 T02520139  RH  049%=      5-min Rain = 0
KAD1 120205Z 27005KT 25/14 A3013 RMK A01 T02520139  RH  050%=      5-min Rain = 0
KAD1 120206Z 27006KT 25/14 A3013 RMK A01 T02520139  RH  050%=      5-min Rain = 0
KAD1 120207Z 27008KT 25/14 A3013 RMK A01 T02520140  RH  050%=      5-min Rain = 0
KAD1 120208Z 27008KT 25/14 A3013 RMK A01 T02510140  RH  050%=      5-min Rain = 0
KAD1 120209Z 25008KT 25/14 A3013 RMK A01 T02510141  RH  050%=      5-min Rain = 0
KAD1 120210Z 25009KT 25/14 A3013 RMK A01 T02510141  RH  051%=      5-min Rain = 0
KAD1 120211Z 25007KT 25/14 A3013 RMK A01 T02500141  RH  051%=      5-min Rain = 0
KAD1 120212Z 25005KT 25/14 A3013 RMK A01 T02490141  RH  051%=      5-min Rain = 0
KAD1 120213Z 26006KT 25/14 A3013 RMK A01 T02490141  RH  051%=      5-min Rain = 0
KAD1 120214Z 26007KT 25/14 A3013 RMK A01 T02490143  RH  052%=      5-min Rain = 0
KAD1 120215Z 25007KT 25/14 A3013 RMK A01 T02470143  RH  052%=      5-min Rain = 0
KAD1 120216Z 25008KT 25/14 A3013 RMK A01 T02470143  RH  052%=      5-min Rain = 0
KAD1 120217Z 25007KT 25/14 A3013 RMK A01 T02470144  RH  053%=      5-min Rain = 0
KAD1 120218Z 26007KT 25/15 A3013 RMK A01 T02450145  RH  054%=      5-min Rain = 0
KAD1 120219Z 26007KT 24/15 A3013 RMK A01 T02440149  RH  055%=      5-min Rain = 0
KAD1 120220Z 26007KT 24/15 A3013 RMK A01 T02430150  RH  056%=      5-min Rain = 0
KAD1 120221Z 26007KT 24/15 A3013 RMK A01 T02410150  RH  057%=      5-min Rain = 0
KAD1 120222Z 27006KT 24/15 A3013 RMK A01 T02400151  RH  057%=      5-min Rain = 0
KAD1 120223Z 26006KT 24/15 A3013 RMK A01 T02390152  RH  058%=      5-min Rain = 0
KAD1 120224Z 26006KT 24/15 A3013 RMK A01 T02380152  RH  058%=      5-min Rain = 0
KAD1 120225Z 26004KT 24/15 A3013 RMK A01 T02380153  RH  059%=      5-min Rain = 0
KAD1 120226Z 26004KT 24/16 A3013 RMK A01 T02370155  RH  060%=      5-min Rain = 0
KAD1 120227Z 26003KT 24/16 A3013 RMK A01 T02350156  RH  061%=      5-min Rain = 0
KAD1 120228Z 27003KT 24/16 A3013 RMK A01 T02350156  RH  061%=      5-min Rain = 0
KAD1 120229Z 26003KT 23/16 A3013 RMK A01 T02340158  RH  062%=      5-min Rain = 0
KAD1 120230Z 26003KT 23/16 A3013 RMK A01 T02340158  RH  062%=      5-min Rain = 0
KAD1 120231Z 27003KT 23/16 A3013 RMK A01 T02340157  RH  062%=      5-min Rain = 0
KAD1 120232Z 27003KT 23/16 A3013 RMK A01 T02340156  RH  062%=      5-min Rain = 0
KAD1 120233Z 27003KT 23/16 A3013 RMK A01 T02340156  RH  061%=      5-min Rain = 0
KAD1 120234Z 26003KT 23/16 A3013 RMK A01 T02340155  RH  061%=      5-min Rain = 0
KAD1 120235Z 26003KT 23/16 A3013 RMK A01 T02340157  RH  062%=      5-min Rain = 0
KAD1 120236Z 27003KT 23/16 A3013 RMK A01 T02330158  RH  062%=      5-min Rain = 0
KAD1 120237Z 27003KT 23/16 A3013 RMK A01 T02330157  RH  062%=      5-min Rain = 0
KAD1 120238Z 27003KT 23/16 A3013 RMK A01 T02330158  RH  062%=      5-min Rain = 0
KAD1 120239Z 27003KT 23/16 A3013 RMK A01 T02330158  RH  063%=      5-min Rain = 0
KAD1 120240Z 27003KT 23/16 A3013 RMK A01 T02330157  RH  063%=      5-min Rain = 0
KAD1 120241Z 27004KT 23/16 A3013 RMK A01 T02330158  RH  063%=      5-min Rain = 0
KAD1 120242Z 27005KT 23/16 A3013 RMK A01 T02330157  RH  062%=      5-min Rain = 0
KAD1 120243Z 26005KT 23/16 A3013 RMK A01 T02330157  RH  062%=      5-min Rain = 0
KAD1 120244Z 26006KT 23/16 A3013 RMK A01 T02320158  RH  063%=      5-min Rain = 0
KAD1 120245Z 26006KT 23/16 A3013 RMK A01 T02310157  RH  063%=      5-min Rain = 0
KAD1 120246Z 25006KT 23/16 A3013 RMK A01 T02300157  RH  063%=      5-min Rain = 0
KAD1 120247Z 25006KT 23/16 A3013 RMK A01 T02290155  RH  063%=      5-min Rain = 0
KAD1 120248Z 25006KT 23/15 A3013 RMK A01 T02290154  RH  063%=      5-min Rain = 0
KAD1 120249Z 25005KT 23/15 A3013 RMK A01 T02290153  RH  062%=      5-min Rain = 0
KAD1 120250Z 25005KT 23/15 A3013 RMK A01 T02290153  RH  062%=      5-min Rain = 0
KAD1 120251Z 25005KT 23/15 A3013 RMK A01 T02290153  RH  062%=      5-min Rain = 0
KAD1 120252Z 26006KT 23/15 A3013 RMK A01 T02290153  RH  062%=      5-min Rain = 0
KAD1 120253Z 26005KT 23/15 A3013 RMK A01 T02300150  RH  061%=      5-min Rain = 0
KAD1 120254Z 25005KT 23/15 A3013 RMK A01 T02310149  RH  060%=      5-min Rain = 0
KAD1 120255Z 24005KT 23/15 A3013 RMK A01 T02320149  RH  059%=      5-min Rain = 0
KAD1 120256Z 24004KT 23/15 A3013 RMK A01 T02320149  RH  059%=      5-min Rain = 0
KAD1 120257Z 23004KT 23/15 A3013 RMK A01 T02330150  RH  060%=      5-min Rain = 0
KAD1 120258Z 23004KT 23/15 A3013 RMK A01 T02320150  RH  060%=      5-min Rain = 0
KAD1 120259Z 23005KT 23/15 A3013 RMK A01 T02320150  RH  060%=      5-min Rain = 0
KAD1 120300Z 23005KT 23/15 A3013 RMK A01 T02310150  RH  060%=      5-min Rain = 0
KAD1 120301Z 22005KT 23/15 A3013 RMK A01 T02300150  RH  061%=      5-min Rain = 0
KAD1 120302Z 22005KT 23/15 A3013 RMK A01 T02290150  RH  061%=      5-min Rain = 0
KAD1 120303Z 22005KT 23/15 A3013 RMK A01 T02290149  RH  061%=      5-min Rain = 0
KAD1 120304Z 21005KT 23/15 A3012 RMK A01 T02290149  RH  061%=      5-min Rain = 0
KAD1 120305Z 21005KT 23/15 A3012 RMK A01 T02290148  RH  060%=      5-min Rain = 0
KAD1 120306Z 21005KT 23/15 A3013 RMK A01 T02290148  RH  060%=      5-min Rain = 0
KAD1 120307Z 21005KT 23/15 A3013 RMK A01 T02280148  RH  060%=      5-min Rain = 0
KAD1 120308Z 22005KT 23/15 A3013 RMK A01 T02280147  RH  060%=      5-min Rain = 0
KAD1 120309Z 22005KT 23/15 A3013 RMK A01 T02280147  RH  060%=      5-min Rain = 0
KAD1 120310Z 21005KT 23/15 A3013 RMK A01 T02280146  RH  060%=      5-min Rain = 0
KAD1 120311Z 21005KT 23/15 A3013 RMK A01 T02280146  RH  060%=      5-min Rain = 0
KAD1 120312Z 22005KT 23/15 A3013 RMK A01 T02280146  RH  060%=      5-min Rain = 0
KAD1 120313Z 22005KT 23/15 A3013 RMK A01 T02280146  RH  060%=      5-min Rain = 0
KAD1 120314Z 21006KT 23/15 A3013 RMK A01 T02270146  RH  060%=      5-min Rain = 0
KAD1 120315Z 21006KT 23/15 A3013 RMK A01 T02260146  RH  060%=      5-min Rain = 0
KAD1 120316Z 21006KT 23/15 A3013 RMK A01 T02260145  RH  060%=      5-min Rain = 0
KAD1 120317Z 22006KT 23/15 A3013 RMK A01 T02260145  RH  060%=      5-min Rain = 0
KAD1 120318Z 22007KT 23/15 A3013 RMK A01 T02260145  RH  060%=      5-min Rain = 0
KAD1 120319Z 21006KT 23/15 A3013 RMK A01 T02270145  RH  060%=      5-min Rain = 0
KAD1 120320Z 20007KT 23/15 A3013 RMK A01 T02270145  RH  060%=      5-min Rain = 0
KAD1 120321Z 20007KT 23/15 A3013 RMK A01 T02270145  RH  060%=      5-min Rain = 0
KAD1 120322Z 20007KT 23/15 A3013 RMK A01 T02280145  RH  059%=      5-min Rain = 0
KAD1 120323Z 20007KT 23/15 A3013 RMK A01 T02280145  RH  059%=      5-min Rain = 0
KAD1 120324Z 21007KT 23/15 A3013 RMK A01 T02280145  RH  059%=      5-min Rain = 0
KAD1 120325Z 20007KT 23/15 A3013 RMK A01 T02280145  RH  060%=      5-min Rain = 0
KAD1 120326Z 20006KT 23/15 A3013 RMK A01 T02270145  RH  060%=      5-min Rain = 0
KAD1 120327Z 20007KT 23/15 A3013 RMK A01 T02270145  RH  060%=      5-min Rain = 0
KAD1 120328Z 20007KT 23/15 A3013 RMK A01 T02270145  RH  060%=      5-min Rain = 0
KAD1 120329Z 19007KT 23/15 A3014 RMK A01 T02270145  RH  060%=      5-min Rain = 0
KAD1 120330Z 19008KT 23/15 A3014 RMK A01 T02270145  RH  060%=      5-min Rain = 0
KAD1 120331Z 19008KT 23/15 A3014 RMK A01 T02280145  RH  059%=      5-min Rain = 0
KAD1 120332Z 19009KT 23/15 A3014 RMK A01 T02280145  RH  059%=      5-min Rain = 0
KAD1 120333Z 19009KT 23/15 A3014 RMK A01 T02290145  RH  059%=      5-min Rain = 0
KAD1 120334Z 19009KT 23/15 A3014 RMK A01 T02290145  RH  059%=      5-min Rain = 0
KAD1 120335Z 19010KT 23/15 A3014 RMK A01 T02300146  RH  059%=      5-min Rain = 0
KAD1 120336Z 19011KT 23/15 A3014 RMK A01 T02290146  RH  059%=      5-min Rain = 0
KAD1 120337Z 19011KT 23/15 A3014 RMK A01 T02300146  RH  059%=      5-min Rain = 0
KAD1 120338Z 20011KT 23/15 A3014 RMK A01 T02300146  RH  059%=      5-min Rain = 0
KAD1 120339Z 20009KT 23/15 A3014 RMK A01 T02300146  RH  059%=      5-min Rain = 0
KAD1 120340Z 20008KT 23/15 A3014 RMK A01 T02300145  RH  059%=      5-min Rain = 0
KAD1 120341Z 20007KT 23/15 A3014 RMK A01 T02310146  RH  059%=      5-min Rain = 0
KAD1 120342Z 19010KT 23/15 A3014 RMK A01 T02300145  RH  059%=      5-min Rain = 0
KAD1 120343Z 19010KT 23/15 A3014 RMK A01 T02310145  RH  059%=      5-min Rain = 0
KAD1 120344Z 19010KT 23/15 A3014 RMK A01 T02310145  RH  058%=      5-min Rain = 0
KAD1 120345Z 19010KT 23/15 A3014 RMK A01 T02310145  RH  058%=      5-min Rain = 0
KAD1 120346Z 19010KT 23/15 A3014 RMK A01 T02310146  RH  059%=      5-min Rain = 0
KAD1 120347Z 19010KT 23/15 A3014 RMK A01 T02310146  RH  059%=      5-min Rain = 0
KAD1 120348Z 20010KT 23/15 A3014 RMK A01 T02310146  RH  059%=      5-min Rain = 0
KAD1 120349Z 19009KT 23/15 A3014 RMK A01 T02300146  RH  059%=      5-min Rain = 0
KAD1 120350Z 19009KT 23/15 A3014 RMK A01 T02300146  RH  059%=      5-min Rain = 0
KAD1 120351Z 19009KT 23/15 A3014 RMK A01 T02300146  RH  059%=      5-min Rain = 0
KAD1 120352Z 19009KT 23/15 A3014 RMK A01 T02300146  RH  059%=      5-min Rain = 0
KAD1 120353Z 19009KT 23/15 A3014 RMK A01 T02300145  RH  059%=      5-min Rain = 0
KAD1 120354Z 19008KT 23/15 A3014 RMK A01 T02310145  RH  059%=      5-min Rain = 0
KAD1 120355Z 19008KT 23/15 A3014 RMK A01 T02310145  RH  058%=      5-min Rain = 0
KAD1 120356Z 19008KT 23/15 A3014 RMK A01 T02310145  RH  058%=      5-min Rain = 0
KAD1 120357Z 19008KT 23/15 A3014 RMK A01 T02320145  RH  058%=      5-min Rain = 0
KAD1 120358Z 19007KT 23/15 A3014 RMK A01 T02320145  RH  058%=      5-min Rain = 0
KAD1 120359Z 18008KT 23/15 A3014 RMK A01 T02330145  RH  058%=      5-min Rain = 0
KAD1 120400Z 19008KT 23/15 A3014 RMK A01 T02330145  RH  058%=      5-min Rain = 0
KAD1 120401Z 18009KT 23/15 A3014 RMK A01 T02330145  RH  057%=      5-min Rain = 0
KAD1 120402Z 18009KT 23/14 A3014 RMK A01 T02330144  RH  057%=      5-min Rain = 0
KAD1 120403Z 18008KT 23/15 A3014 RMK A01 T02340145  RH  057%=      5-min Rain = 0
KAD1 120404Z 18008KT 24/15 A3014 RMK A01 T02350145  RH  057%=      5-min Rain = 0
KAD1 120405Z 18008KT 24/15 A3014 RMK A01 T02360145  RH  057%=      5-min Rain = 0
KAD1 120406Z 18007KT 24/14 A3014 RMK A01 T02360144  RH  056%=      5-min Rain = 0
KAD1 120407Z 18007KT 24/14 A3014 RMK A01 T02370144  RH  056%=      5-min Rain = 0
KAD1 120408Z 17007KT 24/14 A3014 RMK A01 T02370144  RH  056%=      5-min Rain = 0
KAD1 120409Z 17007KT 24/14 A3014 RMK A01 T02380144  RH  056%=      5-min Rain = 0
KAD1 120410Z 17008KT 24/14 A3014 RMK A01 T02380144  RH  055%=      5-min Rain = 0
KAD1 120411Z 17008KT 24/14 A3014 RMK A01 T02390144  RH  055%=      5-min Rain = 0
KAD1 120412Z 17008KT 24/14 A3014 RMK A01 T02390144  RH  055%=      5-min Rain = 0
KAD1 120413Z 17008KT 24/14 A3014 RMK A01 T02390144  RH  055%=      5-min Rain = 0
KAD1 120414Z 17009KT 24/14 A3014 RMK A01 T02400144  RH  055%=      5-min Rain = 0
KAD1 120415Z 17009KT 24/14 A3014 RMK A01 T02400144  RH  055%=      5-min Rain = 0
KAD1 120416Z 17010KT 24/14 A3014 RMK A01 T02400144  RH  055%=      5-min Rain = 0
KAD1 120417Z 17010KT 24/14 A3014 RMK A01 T02400144  RH  055%=      5-min Rain = 0
KAD1 120418Z 17009KT 24/14 A3014 RMK A01 T02410144  RH  055%=      5-min Rain = 0
KAD1 120419Z 17009KT 24/14 A3014 RMK A01 T02410144  RH  055%=      5-min Rain = 0
KAD1 120420Z 17009KT 24/15 A3014 RMK A01 T02410145  RH  055%=      5-min Rain = 0
KAD1 120421Z 17009KT 24/15 A3014 RMK A01 T02400145  RH  055%=      5-min Rain = 0
KAD1 120422Z 17009KT 24/15 A3014 RMK A01 T02410146  RH  055%=      5-min Rain = 0
KAD1 120423Z 17009KT 24/15 A3014 RMK A01 T02400145  RH  055%=      5-min Rain = 0
KAD1 120424Z 17008KT 24/15 A3014 RMK A01 T02400145  RH  055%=      5-min Rain = 0
KAD1 120425Z 17009KT 24/15 A3014 RMK A01 T02400145  RH  055%=      5-min Rain = 0
KAD1 120426Z 17008KT 24/15 A3014 RMK A01 T02400145  RH  055%=      5-min Rain = 0
KAD1 120427Z 17009KT 24/14 A3014 RMK A01 T02400144  RH  055%=      5-min Rain = 0
KAD1 120428Z 17008KT 24/15 A3014 RMK A01 T02410145  RH  055%=      5-min Rain = 0
KAD1 120429Z 17008KT 24/14 A3014 RMK A01 T02410144  RH  055%=      5-min Rain = 0
KAD1 120430Z 17008KT 24/14 A3014 RMK A01 T02410144  RH  055%=      5-min Rain = 0
KAD1 120431Z 16008KT 24/14 A3014 RMK A01 T02410143  RH  054%=      5-min Rain = 0
KAD1 120432Z 16008KT 24/14 A3014 RMK A01 T02410142  RH  054%=      5-min Rain = 0
KAD1 120433Z 16009KT 24/14 A3014 RMK A01 T02410142  RH  054%=      5-min Rain = 0
KAD1 120434Z 16009KT 24/14 A3014 RMK A01 T02410142  RH  054%=      5-min Rain = 0
KAD1 120435Z 16010KT 24/14 A3014 RMK A01 T02410142  RH  054%=      5-min Rain = 0
KAD1 120436Z 16009KT 24/14 A3014 RMK A01 T02410141  RH  053%=      5-min Rain = 0
KAD1 120437Z 16010KT 24/14 A3014 RMK A01 T02420140  RH  053%=      5-min Rain = 0
KAD1 120438Z 16010KT 24/14 A3014 RMK A01 T02420139  RH  053%=      5-min Rain = 0
KAD1 120439Z 16010KT 24/14 A3014 RMK A01 T02430139  RH  052%=      5-min Rain = 0
KAD1 120440Z 16011KT 24/14 A3014 RMK A01 T02420140  RH  053%=      5-min Rain = 0
KAD1 120441Z 16011KT 24/14 A3014 RMK A01 T02410142  RH  054%=      5-min Rain = 0
KAD1 120442Z 16010KT 24/14 A3014 RMK A01 T02400143  RH  055%=      5-min Rain = 0
KAD1 120443Z 16011KT 24/14 A3014 RMK A01 T02370144  RH  056%=      5-min Rain = 0
KAD1 120444Z 16010KT 24/14 A3014 RMK A01 T02360144  RH  056%=      5-min Rain = 0
KAD1 120445Z 16010KT 24/14 A3014 RMK A01 T02350144  RH  057%=      5-min Rain = 0
KAD1 120446Z 16011KT 23/14 A3014 RMK A01 T02340144  RH  057%=      5-min Rain = 0
KAD1 120447Z 16012KT 23/14 A3014 RMK A01 T02340143  RH  057%=      5-min Rain = 0
KAD1 120448Z 16012KT 23/14 A3014 RMK A01 T02340142  RH  056%=      5-min Rain = 0
KAD1 120449Z 16012KT 23/14 A3014 RMK A01 T02340141  RH  056%=      5-min Rain = 0
KAD1 120450Z 16011KT 24/14 A3014 RMK A01 T02350141  RH  055%=      5-min Rain = 0
KAD1 120451Z 17010KT 24/14 A3014 RMK A01 T02350140  RH  055%=      5-min Rain = 0
KAD1 120452Z 16009KT 24/14 A3014 RMK A01 T02360140  RH  055%=      5-min Rain = 0
KAD1 120453Z 16011KT 24/14 A3015 RMK A01 T02360140  RH  055%=      5-min Rain = 0
KAD1 120454Z 16011KT 24/14 A3015 RMK A01 T02360140  RH  055%=      5-min Rain = 0
KAD1 120455Z 16012KT 24/14 A3015 RMK A01 T02360141  RH  055%=      5-min Rain = 0
KAD1 120456Z 16013KT 24/14 A3015 RMK A01 T02360140  RH  055%=      5-min Rain = 0
KAD1 120457Z 16012KT 24/14 A3015 RMK A01 T02370141  RH  055%=      5-min Rain = 0
KAD1 120458Z 16011KT 24/14 A3015 RMK A01 T02370142  RH  055%=      5-min Rain = 0
KAD1 120459Z 16011KT 24/14 A3015 RMK A01 T02360142  RH  056%=      5-min Rain = 0
KAD1 120500Z 16012KT 24/14 A3015 RMK A01 T02350142  RH  056%=      5-min Rain = 0

Page generated in 0.0329 seconds.